<?xml version="1.0" encoding="UTF-8" standalone="no" ?>
<gpx xmlns="http://www.topografix.com/GPX/1/1" xmlns:xsi="http://www.w3.org/2001/XMLSchema-instance" xsi:schemaLocation="http://www.topografix.com/GPX/1/1 http://www.topografix.com/GPX/1/1/gpx.xsd" version="1.1" creator="VisuGPX - https://www.visugpx.com">
  <metadata>
    <name>La Roussille par Noron 7,5km</name>
  </metadata>
  <wpt lat="46.33238" lon="-0.50762">
    <ele>8</ele>
  </wpt>
  <trk>
    <name><![CDATA[La Roussille par Noron 7,5km_1]]></name>
    <trkseg>
      <trkpt lat="46.33183" lon="-0.50893">
        <ele>61</ele>
        <time>2012-09-13T09:13:47Z</time>
      </trkpt>
      <trkpt lat="46.33185" lon="-0.50894">
        <ele>61</ele>
        <time>2012-09-13T09:13:52Z</time>
      </trkpt>
      <trkpt lat="46.33189" lon="-0.50893">
        <ele>61</ele>
        <time>2012-09-13T09:13:57Z</time>
      </trkpt>
      <trkpt lat="46.3319" lon="-0.50894">
        <ele>61</ele>
        <time>2012-09-13T09:14:02Z</time>
      </trkpt>
      <trkpt lat="46.33196" lon="-0.50893">
        <ele>59</ele>
        <time>2012-09-13T09:14:07Z</time>
      </trkpt>
      <trkpt lat="46.332" lon="-0.50892">
        <ele>59</ele>
        <time>2012-09-13T09:14:12Z</time>
      </trkpt>
      <trkpt lat="46.33204" lon="-0.50892">
        <ele>59</ele>
        <time>2012-09-13T09:14:17Z</time>
      </trkpt>
      <trkpt lat="46.33205" lon="-0.50885">
        <ele>58</ele>
        <time>2012-09-13T09:14:22Z</time>
      </trkpt>
      <trkpt lat="46.33208" lon="-0.50879">
        <ele>57</ele>
        <time>2012-09-13T09:14:27Z</time>
      </trkpt>
      <trkpt lat="46.33212" lon="-0.50875">
        <ele>60</ele>
        <time>2012-09-13T09:14:32Z</time>
      </trkpt>
      <trkpt lat="46.33217" lon="-0.50869">
        <ele>62</ele>
        <time>2012-09-13T09:14:37Z</time>
      </trkpt>
      <trkpt lat="46.33219" lon="-0.50862">
        <ele>63</ele>
        <time>2012-09-13T09:14:42Z</time>
      </trkpt>
      <trkpt lat="46.33222" lon="-0.50853">
        <ele>62</ele>
        <time>2012-09-13T09:14:47Z</time>
      </trkpt>
      <trkpt lat="46.33222" lon="-0.50845">
        <ele>61</ele>
        <time>2012-09-13T09:14:52Z</time>
      </trkpt>
      <trkpt lat="46.33223" lon="-0.50837">
        <ele>62</ele>
        <time>2012-09-13T09:14:57Z</time>
      </trkpt>
      <trkpt lat="46.33226" lon="-0.50831">
        <ele>65</ele>
        <time>2012-09-13T09:15:02Z</time>
      </trkpt>
      <trkpt lat="46.33228" lon="-0.50828">
        <ele>64</ele>
        <time>2012-09-13T09:15:07Z</time>
      </trkpt>
      <trkpt lat="46.33234" lon="-0.50828">
        <ele>64</ele>
        <time>2012-09-13T09:15:12Z</time>
      </trkpt>
      <trkpt lat="46.33236" lon="-0.50826">
        <ele>64</ele>
        <time>2012-09-13T09:15:17Z</time>
      </trkpt>
      <trkpt lat="46.3324" lon="-0.50826">
        <ele>67</ele>
        <time>2012-09-13T09:15:22Z</time>
      </trkpt>
      <trkpt lat="46.33239" lon="-0.5082">
        <ele>65</ele>
        <time>2012-09-13T09:15:27Z</time>
      </trkpt>
      <trkpt lat="46.33241" lon="-0.50817">
        <ele>66</ele>
        <time>2012-09-13T09:15:32Z</time>
      </trkpt>
      <trkpt lat="46.33246" lon="-0.5081">
        <ele>64</ele>
        <time>2012-09-13T09:15:37Z</time>
      </trkpt>
      <trkpt lat="46.33248" lon="-0.50802">
        <ele>65</ele>
        <time>2012-09-13T09:15:42Z</time>
      </trkpt>
      <trkpt lat="46.33249" lon="-0.50795">
        <ele>63</ele>
        <time>2012-09-13T09:15:47Z</time>
      </trkpt>
      <trkpt lat="46.3325" lon="-0.50786">
        <ele>62</ele>
        <time>2012-09-13T09:15:52Z</time>
      </trkpt>
      <trkpt lat="46.33251" lon="-0.50776">
        <ele>60</ele>
        <time>2012-09-13T09:15:57Z</time>
      </trkpt>
      <trkpt lat="46.33252" lon="-0.50769">
        <ele>58</ele>
        <time>2012-09-13T09:16:02Z</time>
      </trkpt>
      <trkpt lat="46.33251" lon="-0.50762">
        <ele>57</ele>
        <time>2012-09-13T09:16:07Z</time>
      </trkpt>
      <trkpt lat="46.33251" lon="-0.50759">
        <ele>59</ele>
        <time>2012-09-13T09:16:12Z</time>
      </trkpt>
      <trkpt lat="46.33252" lon="-0.50751">
        <ele>58</ele>
        <time>2012-09-13T09:16:17Z</time>
      </trkpt>
      <trkpt lat="46.33251" lon="-0.50741">
        <ele>59</ele>
        <time>2012-09-13T09:16:22Z</time>
      </trkpt>
      <trkpt lat="46.33254" lon="-0.50733">
        <ele>57</ele>
        <time>2012-09-13T09:16:27Z</time>
      </trkpt>
      <trkpt lat="46.33254" lon="-0.50728">
        <ele>58</ele>
        <time>2012-09-13T09:16:32Z</time>
      </trkpt>
      <trkpt lat="46.33254" lon="-0.50723">
        <ele>58</ele>
        <time>2012-09-13T09:16:37Z</time>
      </trkpt>
      <trkpt lat="46.33255" lon="-0.50717">
        <ele>60</ele>
        <time>2012-09-13T09:16:42Z</time>
      </trkpt>
      <trkpt lat="46.33253" lon="-0.50714">
        <ele>61</ele>
        <time>2012-09-13T09:16:47Z</time>
      </trkpt>
      <trkpt lat="46.33247" lon="-0.50711">
        <ele>64</ele>
        <time>2012-09-13T09:16:52Z</time>
      </trkpt>
      <trkpt lat="46.33239" lon="-0.50709">
        <ele>64</ele>
        <time>2012-09-13T09:16:57Z</time>
      </trkpt>
      <trkpt lat="46.33234" lon="-0.50708">
        <ele>66</ele>
        <time>2012-09-13T09:17:02Z</time>
      </trkpt>
      <trkpt lat="46.33228" lon="-0.50707">
        <ele>67</ele>
        <time>2012-09-13T09:17:07Z</time>
      </trkpt>
      <trkpt lat="46.33224" lon="-0.50708">
        <ele>67</ele>
        <time>2012-09-13T09:17:12Z</time>
      </trkpt>
      <trkpt lat="46.33221" lon="-0.50709">
        <ele>68</ele>
        <time>2012-09-13T09:17:17Z</time>
      </trkpt>
      <trkpt lat="46.33216" lon="-0.5071">
        <ele>67</ele>
        <time>2012-09-13T09:17:22Z</time>
      </trkpt>
      <trkpt lat="46.33213" lon="-0.50712">
        <ele>68</ele>
        <time>2012-09-13T09:17:27Z</time>
      </trkpt>
      <trkpt lat="46.33208" lon="-0.50709">
        <ele>66</ele>
        <time>2012-09-13T09:17:32Z</time>
      </trkpt>
      <trkpt lat="46.33203" lon="-0.5071">
        <ele>66</ele>
        <time>2012-09-13T09:17:37Z</time>
      </trkpt>
      <trkpt lat="46.33198" lon="-0.50712">
        <ele>65</ele>
        <time>2012-09-13T09:17:42Z</time>
      </trkpt>
      <trkpt lat="46.33189" lon="-0.50715">
        <ele>66</ele>
        <time>2012-09-13T09:17:47Z</time>
      </trkpt>
      <trkpt lat="46.33183" lon="-0.50715">
        <ele>67</ele>
        <time>2012-09-13T09:17:52Z</time>
      </trkpt>
      <trkpt lat="46.33177" lon="-0.50715">
        <ele>68</ele>
        <time>2012-09-13T09:17:57Z</time>
      </trkpt>
      <trkpt lat="46.33172" lon="-0.50717">
        <ele>69</ele>
        <time>2012-09-13T09:18:02Z</time>
      </trkpt>
      <trkpt lat="46.33166" lon="-0.50719">
        <ele>69</ele>
        <time>2012-09-13T09:18:07Z</time>
      </trkpt>
      <trkpt lat="46.33162" lon="-0.50722">
        <ele>67</ele>
        <time>2012-09-13T09:18:12Z</time>
      </trkpt>
      <trkpt lat="46.33157" lon="-0.50722">
        <ele>64</ele>
        <time>2012-09-13T09:18:17Z</time>
      </trkpt>
      <trkpt lat="46.3315" lon="-0.50723">
        <ele>64</ele>
        <time>2012-09-13T09:18:22Z</time>
      </trkpt>
      <trkpt lat="46.33145" lon="-0.50722">
        <ele>63</ele>
        <time>2012-09-13T09:18:27Z</time>
      </trkpt>
      <trkpt lat="46.33139" lon="-0.50723">
        <ele>62</ele>
        <time>2012-09-13T09:18:32Z</time>
      </trkpt>
      <trkpt lat="46.33133" lon="-0.50725">
        <ele>62</ele>
        <time>2012-09-13T09:18:37Z</time>
      </trkpt>
      <trkpt lat="46.33127" lon="-0.50725">
        <ele>62</ele>
        <time>2012-09-13T09:18:42Z</time>
      </trkpt>
      <trkpt lat="46.33121" lon="-0.50726">
        <ele>61</ele>
        <time>2012-09-13T09:18:47Z</time>
      </trkpt>
      <trkpt lat="46.33117" lon="-0.50729">
        <ele>61</ele>
        <time>2012-09-13T09:18:52Z</time>
      </trkpt>
      <trkpt lat="46.33112" lon="-0.50731">
        <ele>63</ele>
        <time>2012-09-13T09:18:57Z</time>
      </trkpt>
      <trkpt lat="46.33108" lon="-0.50733">
        <ele>64</ele>
        <time>2012-09-13T09:19:02Z</time>
      </trkpt>
      <trkpt lat="46.33104" lon="-0.50735">
        <ele>65</ele>
        <time>2012-09-13T09:19:07Z</time>
      </trkpt>
      <trkpt lat="46.33099" lon="-0.50735">
        <ele>64</ele>
        <time>2012-09-13T09:19:12Z</time>
      </trkpt>
      <trkpt lat="46.33094" lon="-0.50738">
        <ele>66</ele>
        <time>2012-09-13T09:19:17Z</time>
      </trkpt>
      <trkpt lat="46.3309" lon="-0.50743">
        <ele>69</ele>
        <time>2012-09-13T09:19:22Z</time>
      </trkpt>
      <trkpt lat="46.33087" lon="-0.50744">
        <ele>69</ele>
        <time>2012-09-13T09:19:27Z</time>
      </trkpt>
      <trkpt lat="46.3308" lon="-0.50746">
        <ele>68</ele>
        <time>2012-09-13T09:19:32Z</time>
      </trkpt>
      <trkpt lat="46.33074" lon="-0.50747">
        <ele>68</ele>
        <time>2012-09-13T09:19:37Z</time>
      </trkpt>
      <trkpt lat="46.33067" lon="-0.5075">
        <ele>68</ele>
        <time>2012-09-13T09:19:42Z</time>
      </trkpt>
      <trkpt lat="46.33063" lon="-0.50752">
        <ele>69</ele>
        <time>2012-09-13T09:19:47Z</time>
      </trkpt>
      <trkpt lat="46.3306" lon="-0.50754">
        <ele>69</ele>
        <time>2012-09-13T09:19:52Z</time>
      </trkpt>
      <trkpt lat="46.33058" lon="-0.50753">
        <ele>69</ele>
        <time>2012-09-13T09:19:57Z</time>
      </trkpt>
      <trkpt lat="46.33052" lon="-0.50754">
        <ele>69</ele>
        <time>2012-09-13T09:20:02Z</time>
      </trkpt>
      <trkpt lat="46.33043" lon="-0.50756">
        <ele>70</ele>
        <time>2012-09-13T09:20:07Z</time>
      </trkpt>
      <trkpt lat="46.33037" lon="-0.50755">
        <ele>70</ele>
        <time>2012-09-13T09:20:12Z</time>
      </trkpt>
      <trkpt lat="46.3303" lon="-0.50755">
        <ele>68</ele>
        <time>2012-09-13T09:20:17Z</time>
      </trkpt>
      <trkpt lat="46.33024" lon="-0.50755">
        <ele>70</ele>
        <time>2012-09-13T09:20:22Z</time>
      </trkpt>
      <trkpt lat="46.33019" lon="-0.50756">
        <ele>70</ele>
        <time>2012-09-13T09:20:27Z</time>
      </trkpt>
      <trkpt lat="46.33019" lon="-0.50757">
        <ele>72</ele>
        <time>2012-09-13T09:20:32Z</time>
      </trkpt>
      <trkpt lat="46.33016" lon="-0.50759">
        <ele>72</ele>
        <time>2012-09-13T09:20:37Z</time>
      </trkpt>
      <trkpt lat="46.33011" lon="-0.50757">
        <ele>71</ele>
        <time>2012-09-13T09:20:42Z</time>
      </trkpt>
      <trkpt lat="46.33004" lon="-0.50759">
        <ele>72</ele>
        <time>2012-09-13T09:20:47Z</time>
      </trkpt>
      <trkpt lat="46.32994" lon="-0.50762">
        <ele>73</ele>
        <time>2012-09-13T09:20:52Z</time>
      </trkpt>
      <trkpt lat="46.32988" lon="-0.50763">
        <ele>74</ele>
        <time>2012-09-13T09:20:57Z</time>
      </trkpt>
      <trkpt lat="46.32979" lon="-0.50764">
        <ele>72</ele>
        <time>2012-09-13T09:21:02Z</time>
      </trkpt>
      <trkpt lat="46.32975" lon="-0.50766">
        <ele>71</ele>
        <time>2012-09-13T09:21:07Z</time>
      </trkpt>
      <trkpt lat="46.32969" lon="-0.5077">
        <ele>71</ele>
        <time>2012-09-13T09:21:12Z</time>
      </trkpt>
      <trkpt lat="46.32963" lon="-0.50772">
        <ele>71</ele>
        <time>2012-09-13T09:21:17Z</time>
      </trkpt>
      <trkpt lat="46.32956" lon="-0.50774">
        <ele>72</ele>
        <time>2012-09-13T09:21:22Z</time>
      </trkpt>
      <trkpt lat="46.3295" lon="-0.50775">
        <ele>71</ele>
        <time>2012-09-13T09:21:27Z</time>
      </trkpt>
      <trkpt lat="46.32945" lon="-0.50773">
        <ele>71</ele>
        <time>2012-09-13T09:21:32Z</time>
      </trkpt>
      <trkpt lat="46.3294" lon="-0.50773">
        <ele>72</ele>
        <time>2012-09-13T09:21:37Z</time>
      </trkpt>
      <trkpt lat="46.32936" lon="-0.50774">
        <ele>70</ele>
        <time>2012-09-13T09:21:42Z</time>
      </trkpt>
      <trkpt lat="46.3293" lon="-0.50775">
        <ele>69</ele>
        <time>2012-09-13T09:21:47Z</time>
      </trkpt>
      <trkpt lat="46.32924" lon="-0.50777">
        <ele>68</ele>
        <time>2012-09-13T09:21:52Z</time>
      </trkpt>
      <trkpt lat="46.32916" lon="-0.50776">
        <ele>69</ele>
        <time>2012-09-13T09:21:57Z</time>
      </trkpt>
      <trkpt lat="46.32908" lon="-0.50779">
        <ele>71</ele>
        <time>2012-09-13T09:22:02Z</time>
      </trkpt>
      <trkpt lat="46.32903" lon="-0.50778">
        <ele>70</ele>
        <time>2012-09-13T09:22:07Z</time>
      </trkpt>
      <trkpt lat="46.32899" lon="-0.5078">
        <ele>70</ele>
        <time>2012-09-13T09:22:12Z</time>
      </trkpt>
      <trkpt lat="46.32891" lon="-0.50779">
        <ele>68</ele>
        <time>2012-09-13T09:22:17Z</time>
      </trkpt>
      <trkpt lat="46.32886" lon="-0.50781">
        <ele>67</ele>
        <time>2012-09-13T09:22:22Z</time>
      </trkpt>
      <trkpt lat="46.32885" lon="-0.50782">
        <ele>67</ele>
        <time>2012-09-13T09:22:27Z</time>
      </trkpt>
      <trkpt lat="46.32876" lon="-0.5078">
        <ele>66</ele>
        <time>2012-09-13T09:22:32Z</time>
      </trkpt>
      <trkpt lat="46.3287" lon="-0.50784">
        <ele>66</ele>
        <time>2012-09-13T09:22:37Z</time>
      </trkpt>
      <trkpt lat="46.32863" lon="-0.50783">
        <ele>63</ele>
        <time>2012-09-13T09:22:42Z</time>
      </trkpt>
      <trkpt lat="46.32863" lon="-0.50783">
        <ele>63</ele>
        <time>2012-09-13T09:22:47Z</time>
      </trkpt>
      <trkpt lat="46.32857" lon="-0.50783">
        <ele>65</ele>
        <time>2012-09-13T09:22:52Z</time>
      </trkpt>
      <trkpt lat="46.32856" lon="-0.50784">
        <ele>66</ele>
        <time>2012-09-13T09:22:57Z</time>
      </trkpt>
      <trkpt lat="46.32855" lon="-0.50784">
        <ele>66</ele>
        <time>2012-09-13T09:23:02Z</time>
      </trkpt>
      <trkpt lat="46.32855" lon="-0.50784">
        <ele>66</ele>
        <time>2012-09-13T09:23:07Z</time>
      </trkpt>
      <trkpt lat="46.32849" lon="-0.50783">
        <ele>66</ele>
        <time>2012-09-13T09:23:12Z</time>
      </trkpt>
      <trkpt lat="46.32839" lon="-0.50779">
        <ele>66</ele>
        <time>2012-09-13T09:23:17Z</time>
      </trkpt>
      <trkpt lat="46.32832" lon="-0.50776">
        <ele>66</ele>
        <time>2012-09-13T09:23:22Z</time>
      </trkpt>
      <trkpt lat="46.32826" lon="-0.5077">
        <ele>66</ele>
        <time>2012-09-13T09:23:27Z</time>
      </trkpt>
      <trkpt lat="46.32819" lon="-0.50766">
        <ele>64</ele>
        <time>2012-09-13T09:23:32Z</time>
      </trkpt>
      <trkpt lat="46.32812" lon="-0.50765">
        <ele>63</ele>
        <time>2012-09-13T09:23:37Z</time>
      </trkpt>
      <trkpt lat="46.32802" lon="-0.50762">
        <ele>60</ele>
        <time>2012-09-13T09:23:42Z</time>
      </trkpt>
      <trkpt lat="46.32795" lon="-0.50762">
        <ele>58</ele>
        <time>2012-09-13T09:23:47Z</time>
      </trkpt>
      <trkpt lat="46.32788" lon="-0.50761">
        <ele>57</ele>
        <time>2012-09-13T09:23:52Z</time>
      </trkpt>
      <trkpt lat="46.32783" lon="-0.50758">
        <ele>59</ele>
        <time>2012-09-13T09:23:57Z</time>
      </trkpt>
      <trkpt lat="46.32777" lon="-0.50758">
        <ele>60</ele>
        <time>2012-09-13T09:24:02Z</time>
      </trkpt>
      <trkpt lat="46.32773" lon="-0.50757">
        <ele>59</ele>
        <time>2012-09-13T09:24:07Z</time>
      </trkpt>
      <trkpt lat="46.32767" lon="-0.50755">
        <ele>59</ele>
        <time>2012-09-13T09:24:12Z</time>
      </trkpt>
      <trkpt lat="46.32761" lon="-0.50753">
        <ele>59</ele>
        <time>2012-09-13T09:24:17Z</time>
      </trkpt>
      <trkpt lat="46.32759" lon="-0.50752">
        <ele>56</ele>
        <time>2012-09-13T09:24:22Z</time>
      </trkpt>
      <trkpt lat="46.32752" lon="-0.50749">
        <ele>55</ele>
        <time>2012-09-13T09:24:27Z</time>
      </trkpt>
      <trkpt lat="46.32747" lon="-0.50746">
        <ele>56</ele>
        <time>2012-09-13T09:24:32Z</time>
      </trkpt>
      <trkpt lat="46.32741" lon="-0.50745">
        <ele>56</ele>
        <time>2012-09-13T09:24:37Z</time>
      </trkpt>
      <trkpt lat="46.32738" lon="-0.50743">
        <ele>55</ele>
        <time>2012-09-13T09:24:42Z</time>
      </trkpt>
      <trkpt lat="46.32732" lon="-0.50743">
        <ele>55</ele>
        <time>2012-09-13T09:24:47Z</time>
      </trkpt>
      <trkpt lat="46.32725" lon="-0.50743">
        <ele>55</ele>
        <time>2012-09-13T09:24:52Z</time>
      </trkpt>
      <trkpt lat="46.32718" lon="-0.50742">
        <ele>57</ele>
        <time>2012-09-13T09:24:57Z</time>
      </trkpt>
      <trkpt lat="46.32714" lon="-0.50741">
        <ele>56</ele>
        <time>2012-09-13T09:25:02Z</time>
      </trkpt>
      <trkpt lat="46.32709" lon="-0.50741">
        <ele>60</ele>
        <time>2012-09-13T09:25:07Z</time>
      </trkpt>
      <trkpt lat="46.32704" lon="-0.50743">
        <ele>59</ele>
        <time>2012-09-13T09:25:12Z</time>
      </trkpt>
      <trkpt lat="46.32696" lon="-0.50744">
        <ele>59</ele>
        <time>2012-09-13T09:25:17Z</time>
      </trkpt>
      <trkpt lat="46.32689" lon="-0.50747">
        <ele>59</ele>
        <time>2012-09-13T09:25:22Z</time>
      </trkpt>
      <trkpt lat="46.32686" lon="-0.50752">
        <ele>61</ele>
        <time>2012-09-13T09:25:27Z</time>
      </trkpt>
      <trkpt lat="46.32682" lon="-0.50756">
        <ele>58</ele>
        <time>2012-09-13T09:25:32Z</time>
      </trkpt>
      <trkpt lat="46.32677" lon="-0.50759">
        <ele>58</ele>
        <time>2012-09-13T09:25:37Z</time>
      </trkpt>
      <trkpt lat="46.32672" lon="-0.50765">
        <ele>59</ele>
        <time>2012-09-13T09:25:42Z</time>
      </trkpt>
      <trkpt lat="46.32667" lon="-0.5077">
        <ele>59</ele>
        <time>2012-09-13T09:25:47Z</time>
      </trkpt>
      <trkpt lat="46.32663" lon="-0.50775">
        <ele>58</ele>
        <time>2012-09-13T09:25:52Z</time>
      </trkpt>
      <trkpt lat="46.3266" lon="-0.50781">
        <ele>60</ele>
        <time>2012-09-13T09:25:57Z</time>
      </trkpt>
      <trkpt lat="46.32659" lon="-0.50784">
        <ele>59</ele>
        <time>2012-09-13T09:26:02Z</time>
      </trkpt>
      <trkpt lat="46.32656" lon="-0.5079">
        <ele>59</ele>
        <time>2012-09-13T09:26:07Z</time>
      </trkpt>
      <trkpt lat="46.32652" lon="-0.50796">
        <ele>62</ele>
        <time>2012-09-13T09:26:12Z</time>
      </trkpt>
      <trkpt lat="46.32648" lon="-0.50802">
        <ele>61</ele>
        <time>2012-09-13T09:26:17Z</time>
      </trkpt>
      <trkpt lat="46.32643" lon="-0.50808">
        <ele>61</ele>
        <time>2012-09-13T09:26:22Z</time>
      </trkpt>
      <trkpt lat="46.3264" lon="-0.50813">
        <ele>60</ele>
        <time>2012-09-13T09:26:27Z</time>
      </trkpt>
      <trkpt lat="46.32637" lon="-0.50819">
        <ele>60</ele>
        <time>2012-09-13T09:26:32Z</time>
      </trkpt>
      <trkpt lat="46.32634" lon="-0.50824">
        <ele>59</ele>
        <time>2012-09-13T09:26:37Z</time>
      </trkpt>
      <trkpt lat="46.3263" lon="-0.5083">
        <ele>59</ele>
        <time>2012-09-13T09:26:42Z</time>
      </trkpt>
      <trkpt lat="46.32626" lon="-0.50833">
        <ele>60</ele>
        <time>2012-09-13T09:26:47Z</time>
      </trkpt>
      <trkpt lat="46.32624" lon="-0.50839">
        <ele>59</ele>
        <time>2012-09-13T09:26:52Z</time>
      </trkpt>
      <trkpt lat="46.32619" lon="-0.50841">
        <ele>58</ele>
        <time>2012-09-13T09:26:57Z</time>
      </trkpt>
      <trkpt lat="46.32611" lon="-0.50842">
        <ele>58</ele>
        <time>2012-09-13T09:27:02Z</time>
      </trkpt>
      <trkpt lat="46.32608" lon="-0.50847">
        <ele>56</ele>
        <time>2012-09-13T09:27:07Z</time>
      </trkpt>
      <trkpt lat="46.32604" lon="-0.50853">
        <ele>58</ele>
        <time>2012-09-13T09:27:12Z</time>
      </trkpt>
      <trkpt lat="46.32602" lon="-0.5086">
        <ele>59</ele>
        <time>2012-09-13T09:27:17Z</time>
      </trkpt>
      <trkpt lat="46.32598" lon="-0.50865">
        <ele>59</ele>
        <time>2012-09-13T09:27:22Z</time>
      </trkpt>
      <trkpt lat="46.32594" lon="-0.50874">
        <ele>61</ele>
        <time>2012-09-13T09:27:27Z</time>
      </trkpt>
      <trkpt lat="46.32591" lon="-0.5088">
        <ele>62</ele>
        <time>2012-09-13T09:27:32Z</time>
      </trkpt>
      <trkpt lat="46.32588" lon="-0.50884">
        <ele>61</ele>
        <time>2012-09-13T09:27:37Z</time>
      </trkpt>
      <trkpt lat="46.32585" lon="-0.50892">
        <ele>63</ele>
        <time>2012-09-13T09:27:42Z</time>
      </trkpt>
      <trkpt lat="46.32584" lon="-0.50899">
        <ele>63</ele>
        <time>2012-09-13T09:27:47Z</time>
      </trkpt>
      <trkpt lat="46.32582" lon="-0.50908">
        <ele>63</ele>
        <time>2012-09-13T09:27:52Z</time>
      </trkpt>
      <trkpt lat="46.32579" lon="-0.50913">
        <ele>63</ele>
        <time>2012-09-13T09:27:57Z</time>
      </trkpt>
      <trkpt lat="46.32576" lon="-0.5092">
        <ele>62</ele>
        <time>2012-09-13T09:28:02Z</time>
      </trkpt>
      <trkpt lat="46.32575" lon="-0.50928">
        <ele>61</ele>
        <time>2012-09-13T09:28:07Z</time>
      </trkpt>
      <trkpt lat="46.32572" lon="-0.50936">
        <ele>62</ele>
        <time>2012-09-13T09:28:12Z</time>
      </trkpt>
      <trkpt lat="46.32569" lon="-0.50943">
        <ele>61</ele>
        <time>2012-09-13T09:28:17Z</time>
      </trkpt>
      <trkpt lat="46.32565" lon="-0.5095">
        <ele>61</ele>
        <time>2012-09-13T09:28:22Z</time>
      </trkpt>
      <trkpt lat="46.32561" lon="-0.50954">
        <ele>58</ele>
        <time>2012-09-13T09:28:27Z</time>
      </trkpt>
      <trkpt lat="46.32559" lon="-0.5096">
        <ele>58</ele>
        <time>2012-09-13T09:28:32Z</time>
      </trkpt>
      <trkpt lat="46.32556" lon="-0.50966">
        <ele>56</ele>
        <time>2012-09-13T09:28:37Z</time>
      </trkpt>
      <trkpt lat="46.32551" lon="-0.50971">
        <ele>56</ele>
        <time>2012-09-13T09:28:42Z</time>
      </trkpt>
      <trkpt lat="46.32545" lon="-0.50975">
        <ele>56</ele>
        <time>2012-09-13T09:28:47Z</time>
      </trkpt>
      <trkpt lat="46.3254" lon="-0.5098">
        <ele>57</ele>
        <time>2012-09-13T09:28:52Z</time>
      </trkpt>
      <trkpt lat="46.32535" lon="-0.50985">
        <ele>58</ele>
        <time>2012-09-13T09:28:57Z</time>
      </trkpt>
      <trkpt lat="46.32534" lon="-0.50989">
        <ele>58</ele>
        <time>2012-09-13T09:29:02Z</time>
      </trkpt>
      <trkpt lat="46.3253" lon="-0.50991">
        <ele>57</ele>
        <time>2012-09-13T09:29:07Z</time>
      </trkpt>
      <trkpt lat="46.32528" lon="-0.50996">
        <ele>56</ele>
        <time>2012-09-13T09:29:12Z</time>
      </trkpt>
      <trkpt lat="46.32522" lon="-0.50997">
        <ele>57</ele>
        <time>2012-09-13T09:29:17Z</time>
      </trkpt>
      <trkpt lat="46.32515" lon="-0.51003">
        <ele>55</ele>
        <time>2012-09-13T09:29:22Z</time>
      </trkpt>
      <trkpt lat="46.32511" lon="-0.51005">
        <ele>56</ele>
        <time>2012-09-13T09:29:27Z</time>
      </trkpt>
      <trkpt lat="46.32503" lon="-0.51008">
        <ele>56</ele>
        <time>2012-09-13T09:29:32Z</time>
      </trkpt>
      <trkpt lat="46.32496" lon="-0.51011">
        <ele>54</ele>
        <time>2012-09-13T09:29:37Z</time>
      </trkpt>
      <trkpt lat="46.32491" lon="-0.51014">
        <ele>53</ele>
        <time>2012-09-13T09:29:42Z</time>
      </trkpt>
      <trkpt lat="46.32487" lon="-0.51017">
        <ele>52</ele>
        <time>2012-09-13T09:29:47Z</time>
      </trkpt>
      <trkpt lat="46.32481" lon="-0.5102">
        <ele>53</ele>
        <time>2012-09-13T09:29:52Z</time>
      </trkpt>
      <trkpt lat="46.32473" lon="-0.51021">
        <ele>54</ele>
        <time>2012-09-13T09:29:57Z</time>
      </trkpt>
      <trkpt lat="46.3247" lon="-0.51024">
        <ele>55</ele>
        <time>2012-09-13T09:30:02Z</time>
      </trkpt>
      <trkpt lat="46.32466" lon="-0.51027">
        <ele>55</ele>
        <time>2012-09-13T09:30:07Z</time>
      </trkpt>
      <trkpt lat="46.32461" lon="-0.5103">
        <ele>55</ele>
        <time>2012-09-13T09:30:12Z</time>
      </trkpt>
      <trkpt lat="46.32456" lon="-0.51033">
        <ele>56</ele>
        <time>2012-09-13T09:30:17Z</time>
      </trkpt>
      <trkpt lat="46.3245" lon="-0.51036">
        <ele>55</ele>
        <time>2012-09-13T09:30:22Z</time>
      </trkpt>
      <trkpt lat="46.32444" lon="-0.51037">
        <ele>54</ele>
        <time>2012-09-13T09:30:27Z</time>
      </trkpt>
      <trkpt lat="46.32438" lon="-0.51037">
        <ele>54</ele>
        <time>2012-09-13T09:30:32Z</time>
      </trkpt>
      <trkpt lat="46.32431" lon="-0.51036">
        <ele>55</ele>
        <time>2012-09-13T09:30:37Z</time>
      </trkpt>
      <trkpt lat="46.32428" lon="-0.51037">
        <ele>55</ele>
        <time>2012-09-13T09:30:42Z</time>
      </trkpt>
      <trkpt lat="46.32422" lon="-0.51038">
        <ele>56</ele>
        <time>2012-09-13T09:30:47Z</time>
      </trkpt>
      <trkpt lat="46.32415" lon="-0.5104">
        <ele>56</ele>
        <time>2012-09-13T09:30:52Z</time>
      </trkpt>
      <trkpt lat="46.32408" lon="-0.5104">
        <ele>55</ele>
        <time>2012-09-13T09:30:57Z</time>
      </trkpt>
      <trkpt lat="46.32401" lon="-0.51039">
        <ele>61</ele>
        <time>2012-09-13T09:31:02Z</time>
      </trkpt>
      <trkpt lat="46.32395" lon="-0.51039">
        <ele>59</ele>
        <time>2012-09-13T09:31:07Z</time>
      </trkpt>
      <trkpt lat="46.3239" lon="-0.51038">
        <ele>60</ele>
        <time>2012-09-13T09:31:12Z</time>
      </trkpt>
      <trkpt lat="46.32386" lon="-0.51037">
        <ele>60</ele>
        <time>2012-09-13T09:31:17Z</time>
      </trkpt>
      <trkpt lat="46.3238" lon="-0.51036">
        <ele>60</ele>
        <time>2012-09-13T09:31:22Z</time>
      </trkpt>
      <trkpt lat="46.32376" lon="-0.51035">
        <ele>57</ele>
        <time>2012-09-13T09:31:27Z</time>
      </trkpt>
      <trkpt lat="46.3237" lon="-0.51034">
        <ele>57</ele>
        <time>2012-09-13T09:31:32Z</time>
      </trkpt>
      <trkpt lat="46.32364" lon="-0.51033">
        <ele>58</ele>
        <time>2012-09-13T09:31:37Z</time>
      </trkpt>
      <trkpt lat="46.3236" lon="-0.51033">
        <ele>57</ele>
        <time>2012-09-13T09:31:42Z</time>
      </trkpt>
      <trkpt lat="46.3235" lon="-0.51032">
        <ele>58</ele>
        <time>2012-09-13T09:31:52Z</time>
      </trkpt>
      <trkpt lat="46.32345" lon="-0.51032">
        <ele>59</ele>
        <time>2012-09-13T09:31:57Z</time>
      </trkpt>
      <trkpt lat="46.32338" lon="-0.51031">
        <ele>58</ele>
        <time>2012-09-13T09:32:02Z</time>
      </trkpt>
      <trkpt lat="46.32335" lon="-0.51031">
        <ele>59</ele>
        <time>2012-09-13T09:32:07Z</time>
      </trkpt>
      <trkpt lat="46.32333" lon="-0.51031">
        <ele>59</ele>
        <time>2012-09-13T09:32:12Z</time>
      </trkpt>
      <trkpt lat="46.32325" lon="-0.51028">
        <ele>59</ele>
        <time>2012-09-13T09:32:17Z</time>
      </trkpt>
      <trkpt lat="46.32317" lon="-0.51027">
        <ele>59</ele>
        <time>2012-09-13T09:32:22Z</time>
      </trkpt>
      <trkpt lat="46.32308" lon="-0.51026">
        <ele>60</ele>
        <time>2012-09-13T09:32:27Z</time>
      </trkpt>
      <trkpt lat="46.32303" lon="-0.51025">
        <ele>60</ele>
        <time>2012-09-13T09:32:32Z</time>
      </trkpt>
      <trkpt lat="46.32297" lon="-0.51025">
        <ele>61</ele>
        <time>2012-09-13T09:32:37Z</time>
      </trkpt>
      <trkpt lat="46.3229" lon="-0.51022">
        <ele>61</ele>
        <time>2012-09-13T09:32:42Z</time>
      </trkpt>
      <trkpt lat="46.32285" lon="-0.51021">
        <ele>61</ele>
        <time>2012-09-13T09:32:47Z</time>
      </trkpt>
      <trkpt lat="46.3228" lon="-0.51017">
        <ele>60</ele>
        <time>2012-09-13T09:32:52Z</time>
      </trkpt>
      <trkpt lat="46.32275" lon="-0.51013">
        <ele>58</ele>
        <time>2012-09-13T09:32:57Z</time>
      </trkpt>
      <trkpt lat="46.3227" lon="-0.51011">
        <ele>59</ele>
        <time>2012-09-13T09:33:02Z</time>
      </trkpt>
      <trkpt lat="46.32263" lon="-0.51008">
        <ele>59</ele>
        <time>2012-09-13T09:33:07Z</time>
      </trkpt>
      <trkpt lat="46.32258" lon="-0.51005">
        <ele>59</ele>
        <time>2012-09-13T09:33:12Z</time>
      </trkpt>
      <trkpt lat="46.32252" lon="-0.51001">
        <ele>60</ele>
        <time>2012-09-13T09:33:17Z</time>
      </trkpt>
      <trkpt lat="46.32248" lon="-0.50997">
        <ele>59</ele>
        <time>2012-09-13T09:33:22Z</time>
      </trkpt>
      <trkpt lat="46.32243" lon="-0.50994">
        <ele>60</ele>
        <time>2012-09-13T09:33:27Z</time>
      </trkpt>
      <trkpt lat="46.32237" lon="-0.5099">
        <ele>61</ele>
        <time>2012-09-13T09:33:32Z</time>
      </trkpt>
      <trkpt lat="46.32231" lon="-0.50985">
        <ele>60</ele>
        <time>2012-09-13T09:33:37Z</time>
      </trkpt>
      <trkpt lat="46.32229" lon="-0.50981">
        <ele>60</ele>
        <time>2012-09-13T09:33:42Z</time>
      </trkpt>
      <trkpt lat="46.32224" lon="-0.50974">
        <ele>61</ele>
        <time>2012-09-13T09:33:47Z</time>
      </trkpt>
      <trkpt lat="46.32218" lon="-0.50968">
        <ele>62</ele>
        <time>2012-09-13T09:33:52Z</time>
      </trkpt>
      <trkpt lat="46.32215" lon="-0.50964">
        <ele>62</ele>
        <time>2012-09-13T09:33:57Z</time>
      </trkpt>
      <trkpt lat="46.3221" lon="-0.50959">
        <ele>63</ele>
        <time>2012-09-13T09:34:02Z</time>
      </trkpt>
      <trkpt lat="46.32205" lon="-0.50953">
        <ele>64</ele>
        <time>2012-09-13T09:34:07Z</time>
      </trkpt>
      <trkpt lat="46.32202" lon="-0.5095">
        <ele>63</ele>
        <time>2012-09-13T09:34:12Z</time>
      </trkpt>
      <trkpt lat="46.32197" lon="-0.50945">
        <ele>63</ele>
        <time>2012-09-13T09:34:17Z</time>
      </trkpt>
      <trkpt lat="46.32194" lon="-0.50936">
        <ele>62</ele>
        <time>2012-09-13T09:34:22Z</time>
      </trkpt>
      <trkpt lat="46.32191" lon="-0.50934">
        <ele>62</ele>
        <time>2012-09-13T09:34:27Z</time>
      </trkpt>
      <trkpt lat="46.32185" lon="-0.50929">
        <ele>62</ele>
        <time>2012-09-13T09:34:32Z</time>
      </trkpt>
      <trkpt lat="46.3218" lon="-0.50925">
        <ele>62</ele>
        <time>2012-09-13T09:34:37Z</time>
      </trkpt>
      <trkpt lat="46.32175" lon="-0.50921">
        <ele>63</ele>
        <time>2012-09-13T09:34:42Z</time>
      </trkpt>
      <trkpt lat="46.32171" lon="-0.50917">
        <ele>62</ele>
        <time>2012-09-13T09:34:47Z</time>
      </trkpt>
      <trkpt lat="46.32165" lon="-0.50912">
        <ele>65</ele>
        <time>2012-09-13T09:34:52Z</time>
      </trkpt>
      <trkpt lat="46.32162" lon="-0.50907">
        <ele>64</ele>
        <time>2012-09-13T09:34:57Z</time>
      </trkpt>
      <trkpt lat="46.32158" lon="-0.50903">
        <ele>64</ele>
        <time>2012-09-13T09:35:02Z</time>
      </trkpt>
      <trkpt lat="46.32154" lon="-0.50899">
        <ele>65</ele>
        <time>2012-09-13T09:35:07Z</time>
      </trkpt>
      <trkpt lat="46.32148" lon="-0.50894">
        <ele>66</ele>
        <time>2012-09-13T09:35:12Z</time>
      </trkpt>
      <trkpt lat="46.32143" lon="-0.50889">
        <ele>66</ele>
        <time>2012-09-13T09:35:17Z</time>
      </trkpt>
      <trkpt lat="46.32139" lon="-0.50885">
        <ele>63</ele>
        <time>2012-09-13T09:35:22Z</time>
      </trkpt>
      <trkpt lat="46.32136" lon="-0.5088">
        <ele>62</ele>
        <time>2012-09-13T09:35:27Z</time>
      </trkpt>
      <trkpt lat="46.32134" lon="-0.50876">
        <ele>61</ele>
        <time>2012-09-13T09:35:32Z</time>
      </trkpt>
      <trkpt lat="46.3213" lon="-0.50872">
        <ele>61</ele>
        <time>2012-09-13T09:35:37Z</time>
      </trkpt>
      <trkpt lat="46.32126" lon="-0.5087">
        <ele>60</ele>
        <time>2012-09-13T09:35:42Z</time>
      </trkpt>
      <trkpt lat="46.32121" lon="-0.50872">
        <ele>61</ele>
        <time>2012-09-13T09:35:47Z</time>
      </trkpt>
      <trkpt lat="46.32116" lon="-0.50878">
        <ele>62</ele>
        <time>2012-09-13T09:35:52Z</time>
      </trkpt>
      <trkpt lat="46.32112" lon="-0.50882">
        <ele>61</ele>
        <time>2012-09-13T09:35:57Z</time>
      </trkpt>
      <trkpt lat="46.32105" lon="-0.50882">
        <ele>61</ele>
        <time>2012-09-13T09:36:02Z</time>
      </trkpt>
      <trkpt lat="46.32101" lon="-0.50879">
        <ele>60</ele>
        <time>2012-09-13T09:36:07Z</time>
      </trkpt>
      <trkpt lat="46.32098" lon="-0.50873">
        <ele>60</ele>
        <time>2012-09-13T09:36:12Z</time>
      </trkpt>
      <trkpt lat="46.32095" lon="-0.50867">
        <ele>59</ele>
        <time>2012-09-13T09:36:17Z</time>
      </trkpt>
      <trkpt lat="46.32092" lon="-0.50861">
        <ele>59</ele>
        <time>2012-09-13T09:36:22Z</time>
      </trkpt>
      <trkpt lat="46.32086" lon="-0.50854">
        <ele>60</ele>
        <time>2012-09-13T09:36:27Z</time>
      </trkpt>
      <trkpt lat="46.32082" lon="-0.50848">
        <ele>58</ele>
        <time>2012-09-13T09:36:32Z</time>
      </trkpt>
      <trkpt lat="46.32079" lon="-0.50842">
        <ele>59</ele>
        <time>2012-09-13T09:36:37Z</time>
      </trkpt>
      <trkpt lat="46.32076" lon="-0.50838">
        <ele>59</ele>
        <time>2012-09-13T09:36:42Z</time>
      </trkpt>
      <trkpt lat="46.32073" lon="-0.50831">
        <ele>59</ele>
        <time>2012-09-13T09:36:47Z</time>
      </trkpt>
      <trkpt lat="46.32068" lon="-0.50825">
        <ele>59</ele>
        <time>2012-09-13T09:36:52Z</time>
      </trkpt>
      <trkpt lat="46.32066" lon="-0.5082">
        <ele>58</ele>
        <time>2012-09-13T09:36:57Z</time>
      </trkpt>
      <trkpt lat="46.32066" lon="-0.50813">
        <ele>60</ele>
        <time>2012-09-13T09:37:02Z</time>
      </trkpt>
      <trkpt lat="46.32065" lon="-0.50804">
        <ele>62</ele>
        <time>2012-09-13T09:37:07Z</time>
      </trkpt>
      <trkpt lat="46.32059" lon="-0.50799">
        <ele>60</ele>
        <time>2012-09-13T09:37:12Z</time>
      </trkpt>
      <trkpt lat="46.32056" lon="-0.50791">
        <ele>59</ele>
        <time>2012-09-13T09:37:17Z</time>
      </trkpt>
      <trkpt lat="46.32054" lon="-0.50782">
        <ele>58</ele>
        <time>2012-09-13T09:37:22Z</time>
      </trkpt>
      <trkpt lat="46.32053" lon="-0.50775">
        <ele>59</ele>
        <time>2012-09-13T09:37:27Z</time>
      </trkpt>
      <trkpt lat="46.32051" lon="-0.50768">
        <ele>58</ele>
        <time>2012-09-13T09:37:32Z</time>
      </trkpt>
      <trkpt lat="46.32048" lon="-0.5076">
        <ele>58</ele>
        <time>2012-09-13T09:37:37Z</time>
      </trkpt>
      <trkpt lat="46.32047" lon="-0.50752">
        <ele>57</ele>
        <time>2012-09-13T09:37:42Z</time>
      </trkpt>
      <trkpt lat="46.32046" lon="-0.50744">
        <ele>57</ele>
        <time>2012-09-13T09:37:47Z</time>
      </trkpt>
      <trkpt lat="46.32046" lon="-0.50736">
        <ele>57</ele>
        <time>2012-09-13T09:37:52Z</time>
      </trkpt>
      <trkpt lat="46.32045" lon="-0.50729">
        <ele>57</ele>
        <time>2012-09-13T09:37:57Z</time>
      </trkpt>
      <trkpt lat="46.32046" lon="-0.50721">
        <ele>58</ele>
        <time>2012-09-13T09:38:02Z</time>
      </trkpt>
      <trkpt lat="46.32047" lon="-0.50712">
        <ele>59</ele>
        <time>2012-09-13T09:38:07Z</time>
      </trkpt>
      <trkpt lat="46.32045" lon="-0.50705">
        <ele>59</ele>
        <time>2012-09-13T09:38:12Z</time>
      </trkpt>
      <trkpt lat="46.32046" lon="-0.50698">
        <ele>59</ele>
        <time>2012-09-13T09:38:17Z</time>
      </trkpt>
      <trkpt lat="46.32046" lon="-0.5069">
        <ele>58</ele>
        <time>2012-09-13T09:38:22Z</time>
      </trkpt>
      <trkpt lat="46.32046" lon="-0.50681">
        <ele>59</ele>
        <time>2012-09-13T09:38:27Z</time>
      </trkpt>
      <trkpt lat="46.32046" lon="-0.50673">
        <ele>59</ele>
        <time>2012-09-13T09:38:32Z</time>
      </trkpt>
      <trkpt lat="46.32046" lon="-0.50664">
        <ele>58</ele>
        <time>2012-09-13T09:38:37Z</time>
      </trkpt>
      <trkpt lat="46.32044" lon="-0.50656">
        <ele>57</ele>
        <time>2012-09-13T09:38:42Z</time>
      </trkpt>
      <trkpt lat="46.32044" lon="-0.50648">
        <ele>58</ele>
        <time>2012-09-13T09:38:47Z</time>
      </trkpt>
      <trkpt lat="46.32041" lon="-0.50641">
        <ele>58</ele>
        <time>2012-09-13T09:38:52Z</time>
      </trkpt>
      <trkpt lat="46.3204" lon="-0.50633">
        <ele>58</ele>
        <time>2012-09-13T09:38:57Z</time>
      </trkpt>
      <trkpt lat="46.32038" lon="-0.50626">
        <ele>59</ele>
        <time>2012-09-13T09:39:02Z</time>
      </trkpt>
      <trkpt lat="46.32036" lon="-0.50619">
        <ele>60</ele>
        <time>2012-09-13T09:39:07Z</time>
      </trkpt>
      <trkpt lat="46.32037" lon="-0.5061">
        <ele>59</ele>
        <time>2012-09-13T09:39:12Z</time>
      </trkpt>
      <trkpt lat="46.32034" lon="-0.50601">
        <ele>59</ele>
        <time>2012-09-13T09:39:17Z</time>
      </trkpt>
      <trkpt lat="46.32034" lon="-0.50594">
        <ele>59</ele>
        <time>2012-09-13T09:39:22Z</time>
      </trkpt>
      <trkpt lat="46.32032" lon="-0.50587">
        <ele>58</ele>
        <time>2012-09-13T09:39:27Z</time>
      </trkpt>
      <trkpt lat="46.32033" lon="-0.50578">
        <ele>60</ele>
        <time>2012-09-13T09:39:32Z</time>
      </trkpt>
      <trkpt lat="46.32032" lon="-0.50571">
        <ele>59</ele>
        <time>2012-09-13T09:39:37Z</time>
      </trkpt>
      <trkpt lat="46.32032" lon="-0.50563">
        <ele>61</ele>
        <time>2012-09-13T09:39:42Z</time>
      </trkpt>
      <trkpt lat="46.32031" lon="-0.50556">
        <ele>61</ele>
        <time>2012-09-13T09:39:47Z</time>
      </trkpt>
      <trkpt lat="46.32032" lon="-0.50548">
        <ele>61</ele>
        <time>2012-09-13T09:39:52Z</time>
      </trkpt>
      <trkpt lat="46.3203" lon="-0.5054">
        <ele>60</ele>
        <time>2012-09-13T09:39:57Z</time>
      </trkpt>
      <trkpt lat="46.3203" lon="-0.50532">
        <ele>60</ele>
        <time>2012-09-13T09:40:02Z</time>
      </trkpt>
      <trkpt lat="46.32029" lon="-0.50525">
        <ele>61</ele>
        <time>2012-09-13T09:40:07Z</time>
      </trkpt>
      <trkpt lat="46.32029" lon="-0.50517">
        <ele>61</ele>
        <time>2012-09-13T09:40:12Z</time>
      </trkpt>
      <trkpt lat="46.32028" lon="-0.50509">
        <ele>60</ele>
        <time>2012-09-13T09:40:17Z</time>
      </trkpt>
      <trkpt lat="46.3203" lon="-0.50498">
        <ele>61</ele>
        <time>2012-09-13T09:40:22Z</time>
      </trkpt>
      <trkpt lat="46.32032" lon="-0.50489">
        <ele>61</ele>
        <time>2012-09-13T09:40:27Z</time>
      </trkpt>
      <trkpt lat="46.32034" lon="-0.50482">
        <ele>60</ele>
        <time>2012-09-13T09:40:32Z</time>
      </trkpt>
      <trkpt lat="46.32035" lon="-0.50476">
        <ele>60</ele>
        <time>2012-09-13T09:40:37Z</time>
      </trkpt>
      <trkpt lat="46.32037" lon="-0.50468">
        <ele>60</ele>
        <time>2012-09-13T09:40:42Z</time>
      </trkpt>
      <trkpt lat="46.32039" lon="-0.50461">
        <ele>60</ele>
        <time>2012-09-13T09:40:47Z</time>
      </trkpt>
      <trkpt lat="46.32041" lon="-0.50453">
        <ele>61</ele>
        <time>2012-09-13T09:40:52Z</time>
      </trkpt>
      <trkpt lat="46.32045" lon="-0.50444">
        <ele>60</ele>
        <time>2012-09-13T09:40:57Z</time>
      </trkpt>
      <trkpt lat="46.32047" lon="-0.50437">
        <ele>60</ele>
        <time>2012-09-13T09:41:02Z</time>
      </trkpt>
      <trkpt lat="46.32051" lon="-0.5043">
        <ele>62</ele>
        <time>2012-09-13T09:41:07Z</time>
      </trkpt>
      <trkpt lat="46.32053" lon="-0.50422">
        <ele>63</ele>
        <time>2012-09-13T09:41:12Z</time>
      </trkpt>
      <trkpt lat="46.32054" lon="-0.50416">
        <ele>63</ele>
        <time>2012-09-13T09:41:17Z</time>
      </trkpt>
      <trkpt lat="46.32056" lon="-0.50409">
        <ele>63</ele>
        <time>2012-09-13T09:41:22Z</time>
      </trkpt>
      <trkpt lat="46.32059" lon="-0.50402">
        <ele>63</ele>
        <time>2012-09-13T09:41:27Z</time>
      </trkpt>
      <trkpt lat="46.3206" lon="-0.50395">
        <ele>61</ele>
        <time>2012-09-13T09:41:32Z</time>
      </trkpt>
      <trkpt lat="46.32062" lon="-0.50388">
        <ele>60</ele>
        <time>2012-09-13T09:41:37Z</time>
      </trkpt>
      <trkpt lat="46.32064" lon="-0.50381">
        <ele>62</ele>
        <time>2012-09-13T09:41:42Z</time>
      </trkpt>
      <trkpt lat="46.32067" lon="-0.50375">
        <ele>62</ele>
        <time>2012-09-13T09:41:47Z</time>
      </trkpt>
      <trkpt lat="46.32071" lon="-0.50368">
        <ele>62</ele>
        <time>2012-09-13T09:41:52Z</time>
      </trkpt>
      <trkpt lat="46.32075" lon="-0.50361">
        <ele>63</ele>
        <time>2012-09-13T09:41:57Z</time>
      </trkpt>
      <trkpt lat="46.32078" lon="-0.50354">
        <ele>62</ele>
        <time>2012-09-13T09:42:02Z</time>
      </trkpt>
      <trkpt lat="46.32081" lon="-0.50347">
        <ele>62</ele>
        <time>2012-09-13T09:42:07Z</time>
      </trkpt>
      <trkpt lat="46.32084" lon="-0.50339">
        <ele>63</ele>
        <time>2012-09-13T09:42:12Z</time>
      </trkpt>
      <trkpt lat="46.32087" lon="-0.50333">
        <ele>64</ele>
        <time>2012-09-13T09:42:17Z</time>
      </trkpt>
      <trkpt lat="46.32088" lon="-0.50325">
        <ele>63</ele>
        <time>2012-09-13T09:42:22Z</time>
      </trkpt>
      <trkpt lat="46.32089" lon="-0.50315">
        <ele>63</ele>
        <time>2012-09-13T09:42:27Z</time>
      </trkpt>
      <trkpt lat="46.3209" lon="-0.50306">
        <ele>62</ele>
        <time>2012-09-13T09:42:32Z</time>
      </trkpt>
      <trkpt lat="46.32088" lon="-0.50297">
        <ele>60</ele>
        <time>2012-09-13T09:42:37Z</time>
      </trkpt>
      <trkpt lat="46.32087" lon="-0.50289">
        <ele>57</ele>
        <time>2012-09-13T09:42:42Z</time>
      </trkpt>
      <trkpt lat="46.32085" lon="-0.50281">
        <ele>57</ele>
        <time>2012-09-13T09:42:47Z</time>
      </trkpt>
      <trkpt lat="46.32084" lon="-0.50273">
        <ele>55</ele>
        <time>2012-09-13T09:42:52Z</time>
      </trkpt>
      <trkpt lat="46.32082" lon="-0.50265">
        <ele>55</ele>
        <time>2012-09-13T09:42:57Z</time>
      </trkpt>
      <trkpt lat="46.32081" lon="-0.50257">
        <ele>56</ele>
        <time>2012-09-13T09:43:02Z</time>
      </trkpt>
      <trkpt lat="46.32079" lon="-0.5025">
        <ele>57</ele>
        <time>2012-09-13T09:43:07Z</time>
      </trkpt>
      <trkpt lat="46.32077" lon="-0.50242">
        <ele>58</ele>
        <time>2012-09-13T09:43:12Z</time>
      </trkpt>
      <trkpt lat="46.32075" lon="-0.50235">
        <ele>58</ele>
        <time>2012-09-13T09:43:17Z</time>
      </trkpt>
      <trkpt lat="46.32074" lon="-0.50227">
        <ele>57</ele>
        <time>2012-09-13T09:43:22Z</time>
      </trkpt>
      <trkpt lat="46.32071" lon="-0.5022">
        <ele>57</ele>
        <time>2012-09-13T09:43:27Z</time>
      </trkpt>
      <trkpt lat="46.3207" lon="-0.50213">
        <ele>55</ele>
        <time>2012-09-13T09:43:32Z</time>
      </trkpt>
      <trkpt lat="46.3207" lon="-0.50205">
        <ele>55</ele>
        <time>2012-09-13T09:43:37Z</time>
      </trkpt>
      <trkpt lat="46.32068" lon="-0.50196">
        <ele>54</ele>
        <time>2012-09-13T09:43:42Z</time>
      </trkpt>
      <trkpt lat="46.32067" lon="-0.50188">
        <ele>55</ele>
        <time>2012-09-13T09:43:47Z</time>
      </trkpt>
      <trkpt lat="46.32064" lon="-0.50181">
        <ele>55</ele>
        <time>2012-09-13T09:43:52Z</time>
      </trkpt>
      <trkpt lat="46.32062" lon="-0.50174">
        <ele>55</ele>
        <time>2012-09-13T09:43:57Z</time>
      </trkpt>
      <trkpt lat="46.3206" lon="-0.50167">
        <ele>53</ele>
        <time>2012-09-13T09:44:02Z</time>
      </trkpt>
      <trkpt lat="46.32059" lon="-0.50158">
        <ele>53</ele>
        <time>2012-09-13T09:44:07Z</time>
      </trkpt>
      <trkpt lat="46.32057" lon="-0.50151">
        <ele>53</ele>
        <time>2012-09-13T09:44:12Z</time>
      </trkpt>
      <trkpt lat="46.32054" lon="-0.50144">
        <ele>54</ele>
        <time>2012-09-13T09:44:17Z</time>
      </trkpt>
      <trkpt lat="46.32051" lon="-0.50137">
        <ele>53</ele>
        <time>2012-09-13T09:44:22Z</time>
      </trkpt>
      <trkpt lat="46.32047" lon="-0.50132">
        <ele>53</ele>
        <time>2012-09-13T09:44:27Z</time>
      </trkpt>
      <trkpt lat="46.32044" lon="-0.50125">
        <ele>53</ele>
        <time>2012-09-13T09:44:32Z</time>
      </trkpt>
      <trkpt lat="46.3204" lon="-0.50119">
        <ele>51</ele>
        <time>2012-09-13T09:44:37Z</time>
      </trkpt>
      <trkpt lat="46.32037" lon="-0.50112">
        <ele>52</ele>
        <time>2012-09-13T09:44:42Z</time>
      </trkpt>
      <trkpt lat="46.32034" lon="-0.50105">
        <ele>54</ele>
        <time>2012-09-13T09:44:47Z</time>
      </trkpt>
      <trkpt lat="46.3203" lon="-0.50099">
        <ele>54</ele>
        <time>2012-09-13T09:44:52Z</time>
      </trkpt>
      <trkpt lat="46.32026" lon="-0.50092">
        <ele>55</ele>
        <time>2012-09-13T09:44:57Z</time>
      </trkpt>
      <trkpt lat="46.32023" lon="-0.50085">
        <ele>55</ele>
        <time>2012-09-13T09:45:02Z</time>
      </trkpt>
      <trkpt lat="46.32019" lon="-0.50079">
        <ele>56</ele>
        <time>2012-09-13T09:45:07Z</time>
      </trkpt>
      <trkpt lat="46.32016" lon="-0.50074">
        <ele>56</ele>
        <time>2012-09-13T09:45:12Z</time>
      </trkpt>
      <trkpt lat="46.32012" lon="-0.50067">
        <ele>56</ele>
        <time>2012-09-13T09:45:17Z</time>
      </trkpt>
      <trkpt lat="46.32006" lon="-0.50061">
        <ele>57</ele>
        <time>2012-09-13T09:45:22Z</time>
      </trkpt>
      <trkpt lat="46.32002" lon="-0.50054">
        <ele>57</ele>
        <time>2012-09-13T09:45:27Z</time>
      </trkpt>
      <trkpt lat="46.31999" lon="-0.50047">
        <ele>58</ele>
        <time>2012-09-13T09:45:32Z</time>
      </trkpt>
      <trkpt lat="46.31997" lon="-0.50041">
        <ele>58</ele>
        <time>2012-09-13T09:45:37Z</time>
      </trkpt>
      <trkpt lat="46.31994" lon="-0.50034">
        <ele>59</ele>
        <time>2012-09-13T09:45:42Z</time>
      </trkpt>
      <trkpt lat="46.31992" lon="-0.50027">
        <ele>60</ele>
        <time>2012-09-13T09:45:47Z</time>
      </trkpt>
      <trkpt lat="46.31989" lon="-0.50022">
        <ele>60</ele>
        <time>2012-09-13T09:45:52Z</time>
      </trkpt>
      <trkpt lat="46.31987" lon="-0.50014">
        <ele>61</ele>
        <time>2012-09-13T09:45:57Z</time>
      </trkpt>
      <trkpt lat="46.31985" lon="-0.50004">
        <ele>63</ele>
        <time>2012-09-13T09:46:02Z</time>
      </trkpt>
      <trkpt lat="46.31981" lon="-0.49997">
        <ele>61</ele>
        <time>2012-09-13T09:46:07Z</time>
      </trkpt>
      <trkpt lat="46.3198" lon="-0.49992">
        <ele>60</ele>
        <time>2012-09-13T09:46:12Z</time>
      </trkpt>
      <trkpt lat="46.3198" lon="-0.49984">
        <ele>60</ele>
        <time>2012-09-13T09:46:17Z</time>
      </trkpt>
      <trkpt lat="46.31979" lon="-0.49977">
        <ele>59</ele>
        <time>2012-09-13T09:46:22Z</time>
      </trkpt>
      <trkpt lat="46.31978" lon="-0.49969">
        <ele>58</ele>
        <time>2012-09-13T09:46:27Z</time>
      </trkpt>
      <trkpt lat="46.31976" lon="-0.49962">
        <ele>57</ele>
        <time>2012-09-13T09:46:32Z</time>
      </trkpt>
      <trkpt lat="46.31976" lon="-0.49952">
        <ele>58</ele>
        <time>2012-09-13T09:46:37Z</time>
      </trkpt>
      <trkpt lat="46.31975" lon="-0.49946">
        <ele>59</ele>
        <time>2012-09-13T09:46:42Z</time>
      </trkpt>
      <trkpt lat="46.31976" lon="-0.49938">
        <ele>60</ele>
        <time>2012-09-13T09:46:47Z</time>
      </trkpt>
      <trkpt lat="46.31978" lon="-0.4993">
        <ele>60</ele>
        <time>2012-09-13T09:46:52Z</time>
      </trkpt>
      <trkpt lat="46.31979" lon="-0.49921">
        <ele>59</ele>
        <time>2012-09-13T09:46:57Z</time>
      </trkpt>
      <trkpt lat="46.31981" lon="-0.49914">
        <ele>60</ele>
        <time>2012-09-13T09:47:02Z</time>
      </trkpt>
      <trkpt lat="46.31985" lon="-0.49908">
        <ele>60</ele>
        <time>2012-09-13T09:47:07Z</time>
      </trkpt>
      <trkpt lat="46.31988" lon="-0.49902">
        <ele>60</ele>
        <time>2012-09-13T09:47:12Z</time>
      </trkpt>
      <trkpt lat="46.31993" lon="-0.49896">
        <ele>59</ele>
        <time>2012-09-13T09:47:17Z</time>
      </trkpt>
      <trkpt lat="46.31996" lon="-0.4989">
        <ele>59</ele>
        <time>2012-09-13T09:47:22Z</time>
      </trkpt>
      <trkpt lat="46.31999" lon="-0.49884">
        <ele>59</ele>
        <time>2012-09-13T09:47:27Z</time>
      </trkpt>
      <trkpt lat="46.32003" lon="-0.49878">
        <ele>58</ele>
        <time>2012-09-13T09:47:32Z</time>
      </trkpt>
      <trkpt lat="46.32007" lon="-0.49872">
        <ele>59</ele>
        <time>2012-09-13T09:47:37Z</time>
      </trkpt>
      <trkpt lat="46.32011" lon="-0.49867">
        <ele>60</ele>
        <time>2012-09-13T09:47:42Z</time>
      </trkpt>
      <trkpt lat="46.32015" lon="-0.49862">
        <ele>61</ele>
        <time>2012-09-13T09:47:47Z</time>
      </trkpt>
      <trkpt lat="46.32018" lon="-0.49856">
        <ele>61</ele>
        <time>2012-09-13T09:47:52Z</time>
      </trkpt>
      <trkpt lat="46.32022" lon="-0.49849">
        <ele>61</ele>
        <time>2012-09-13T09:47:57Z</time>
      </trkpt>
      <trkpt lat="46.32025" lon="-0.49842">
        <ele>61</ele>
        <time>2012-09-13T09:48:02Z</time>
      </trkpt>
      <trkpt lat="46.3203" lon="-0.49837">
        <ele>61</ele>
        <time>2012-09-13T09:48:07Z</time>
      </trkpt>
      <trkpt lat="46.32034" lon="-0.49831">
        <ele>61</ele>
        <time>2012-09-13T09:48:12Z</time>
      </trkpt>
      <trkpt lat="46.32038" lon="-0.49825">
        <ele>61</ele>
        <time>2012-09-13T09:48:17Z</time>
      </trkpt>
      <trkpt lat="46.32042" lon="-0.49819">
        <ele>61</ele>
        <time>2012-09-13T09:48:22Z</time>
      </trkpt>
      <trkpt lat="46.32047" lon="-0.49816">
        <ele>61</ele>
        <time>2012-09-13T09:48:27Z</time>
      </trkpt>
      <trkpt lat="46.32051" lon="-0.49811">
        <ele>60</ele>
        <time>2012-09-13T09:48:32Z</time>
      </trkpt>
      <trkpt lat="46.32055" lon="-0.49806">
        <ele>60</ele>
        <time>2012-09-13T09:48:37Z</time>
      </trkpt>
      <trkpt lat="46.3206" lon="-0.49803">
        <ele>61</ele>
        <time>2012-09-13T09:48:42Z</time>
      </trkpt>
      <trkpt lat="46.32064" lon="-0.49799">
        <ele>62</ele>
        <time>2012-09-13T09:48:47Z</time>
      </trkpt>
      <trkpt lat="46.32068" lon="-0.49794">
        <ele>60</ele>
        <time>2012-09-13T09:48:52Z</time>
      </trkpt>
      <trkpt lat="46.32072" lon="-0.49789">
        <ele>60</ele>
        <time>2012-09-13T09:48:57Z</time>
      </trkpt>
      <trkpt lat="46.32075" lon="-0.49784">
        <ele>60</ele>
        <time>2012-09-13T09:49:02Z</time>
      </trkpt>
      <trkpt lat="46.32076" lon="-0.49783">
        <ele>60</ele>
        <time>2012-09-13T09:49:07Z</time>
      </trkpt>
      <trkpt lat="46.32078" lon="-0.49782">
        <ele>60</ele>
        <time>2012-09-13T09:49:12Z</time>
      </trkpt>
      <trkpt lat="46.32081" lon="-0.49778">
        <ele>60</ele>
        <time>2012-09-13T09:49:17Z</time>
      </trkpt>
      <trkpt lat="46.32084" lon="-0.49772">
        <ele>59</ele>
        <time>2012-09-13T09:49:22Z</time>
      </trkpt>
      <trkpt lat="46.32088" lon="-0.49767">
        <ele>59</ele>
        <time>2012-09-13T09:49:27Z</time>
      </trkpt>
      <trkpt lat="46.32092" lon="-0.49765">
        <ele>60</ele>
        <time>2012-09-13T09:49:32Z</time>
      </trkpt>
      <trkpt lat="46.32097" lon="-0.49759">
        <ele>61</ele>
        <time>2012-09-13T09:49:37Z</time>
      </trkpt>
      <trkpt lat="46.321" lon="-0.49755">
        <ele>61</ele>
        <time>2012-09-13T09:49:42Z</time>
      </trkpt>
      <trkpt lat="46.32103" lon="-0.49751">
        <ele>61</ele>
        <time>2012-09-13T09:49:47Z</time>
      </trkpt>
      <trkpt lat="46.32107" lon="-0.49746">
        <ele>61</ele>
        <time>2012-09-13T09:49:52Z</time>
      </trkpt>
      <trkpt lat="46.32111" lon="-0.49742">
        <ele>60</ele>
        <time>2012-09-13T09:49:57Z</time>
      </trkpt>
      <trkpt lat="46.32116" lon="-0.49737">
        <ele>60</ele>
        <time>2012-09-13T09:50:02Z</time>
      </trkpt>
      <trkpt lat="46.3212" lon="-0.49735">
        <ele>60</ele>
        <time>2012-09-13T09:50:07Z</time>
      </trkpt>
      <trkpt lat="46.32126" lon="-0.49731">
        <ele>61</ele>
        <time>2012-09-13T09:50:12Z</time>
      </trkpt>
      <trkpt lat="46.3213" lon="-0.49729">
        <ele>62</ele>
        <time>2012-09-13T09:50:17Z</time>
      </trkpt>
      <trkpt lat="46.32136" lon="-0.49725">
        <ele>61</ele>
        <time>2012-09-13T09:50:22Z</time>
      </trkpt>
      <trkpt lat="46.32142" lon="-0.49722">
        <ele>60</ele>
        <time>2012-09-13T09:50:27Z</time>
      </trkpt>
      <trkpt lat="46.32147" lon="-0.49721">
        <ele>61</ele>
        <time>2012-09-13T09:50:32Z</time>
      </trkpt>
      <trkpt lat="46.32152" lon="-0.49718">
        <ele>62</ele>
        <time>2012-09-13T09:50:37Z</time>
      </trkpt>
      <trkpt lat="46.32157" lon="-0.49715">
        <ele>62</ele>
        <time>2012-09-13T09:50:42Z</time>
      </trkpt>
      <trkpt lat="46.32161" lon="-0.49713">
        <ele>62</ele>
        <time>2012-09-13T09:50:47Z</time>
      </trkpt>
      <trkpt lat="46.32167" lon="-0.49712">
        <ele>62</ele>
        <time>2012-09-13T09:50:52Z</time>
      </trkpt>
      <trkpt lat="46.32172" lon="-0.49709">
        <ele>62</ele>
        <time>2012-09-13T09:50:57Z</time>
      </trkpt>
      <trkpt lat="46.32177" lon="-0.49707">
        <ele>62</ele>
        <time>2012-09-13T09:51:02Z</time>
      </trkpt>
      <trkpt lat="46.32181" lon="-0.49704">
        <ele>62</ele>
        <time>2012-09-13T09:51:07Z</time>
      </trkpt>
      <trkpt lat="46.32184" lon="-0.49702">
        <ele>62</ele>
        <time>2012-09-13T09:51:12Z</time>
      </trkpt>
      <trkpt lat="46.32189" lon="-0.49699">
        <ele>62</ele>
        <time>2012-09-13T09:51:17Z</time>
      </trkpt>
      <trkpt lat="46.32192" lon="-0.49695">
        <ele>63</ele>
        <time>2012-09-13T09:51:22Z</time>
      </trkpt>
      <trkpt lat="46.32195" lon="-0.49692">
        <ele>65</ele>
        <time>2012-09-13T09:51:27Z</time>
      </trkpt>
      <trkpt lat="46.32201" lon="-0.49689">
        <ele>64</ele>
        <time>2012-09-13T09:51:32Z</time>
      </trkpt>
      <trkpt lat="46.32207" lon="-0.49687">
        <ele>62</ele>
        <time>2012-09-13T09:51:37Z</time>
      </trkpt>
      <trkpt lat="46.32207" lon="-0.49686">
        <ele>62</ele>
        <time>2012-09-13T09:51:42Z</time>
      </trkpt>
      <trkpt lat="46.3221" lon="-0.49685">
        <ele>62</ele>
        <time>2012-09-13T09:51:47Z</time>
      </trkpt>
      <trkpt lat="46.32215" lon="-0.49682">
        <ele>61</ele>
        <time>2012-09-13T09:51:52Z</time>
      </trkpt>
      <trkpt lat="46.32221" lon="-0.49678">
        <ele>60</ele>
        <time>2012-09-13T09:51:57Z</time>
      </trkpt>
      <trkpt lat="46.32224" lon="-0.49673">
        <ele>59</ele>
        <time>2012-09-13T09:52:02Z</time>
      </trkpt>
      <trkpt lat="46.32227" lon="-0.49669">
        <ele>61</ele>
        <time>2012-09-13T09:52:07Z</time>
      </trkpt>
      <trkpt lat="46.3223" lon="-0.49661">
        <ele>61</ele>
        <time>2012-09-13T09:52:12Z</time>
      </trkpt>
      <trkpt lat="46.32233" lon="-0.49656">
        <ele>60</ele>
        <time>2012-09-13T09:52:17Z</time>
      </trkpt>
      <trkpt lat="46.32233" lon="-0.4965">
        <ele>59</ele>
        <time>2012-09-13T09:52:22Z</time>
      </trkpt>
      <trkpt lat="46.32237" lon="-0.49649">
        <ele>61</ele>
        <time>2012-09-13T09:52:27Z</time>
      </trkpt>
      <trkpt lat="46.3224" lon="-0.49644">
        <ele>65</ele>
        <time>2012-09-13T09:52:32Z</time>
      </trkpt>
      <trkpt lat="46.32244" lon="-0.49643">
        <ele>68</ele>
        <time>2012-09-13T09:52:37Z</time>
      </trkpt>
      <trkpt lat="46.32245" lon="-0.49645">
        <ele>67</ele>
        <time>2012-09-13T09:52:42Z</time>
      </trkpt>
      <trkpt lat="46.32244" lon="-0.49651">
        <ele>68</ele>
        <time>2012-09-13T09:52:47Z</time>
      </trkpt>
      <trkpt lat="46.32246" lon="-0.49651">
        <ele>70</ele>
        <time>2012-09-13T09:52:52Z</time>
      </trkpt>
      <trkpt lat="46.32253" lon="-0.49647">
        <ele>70</ele>
        <time>2012-09-13T09:52:57Z</time>
      </trkpt>
      <trkpt lat="46.3226" lon="-0.49643">
        <ele>66</ele>
        <time>2012-09-13T09:53:02Z</time>
      </trkpt>
      <trkpt lat="46.32265" lon="-0.49642">
        <ele>65</ele>
        <time>2012-09-13T09:53:07Z</time>
      </trkpt>
      <trkpt lat="46.32269" lon="-0.49644">
        <ele>66</ele>
        <time>2012-09-13T09:53:12Z</time>
      </trkpt>
      <trkpt lat="46.32273" lon="-0.49644">
        <ele>66</ele>
        <time>2012-09-13T09:53:17Z</time>
      </trkpt>
      <trkpt lat="46.3228" lon="-0.49645">
        <ele>65</ele>
        <time>2012-09-13T09:53:22Z</time>
      </trkpt>
      <trkpt lat="46.32285" lon="-0.49644">
        <ele>65</ele>
        <time>2012-09-13T09:53:27Z</time>
      </trkpt>
      <trkpt lat="46.3229" lon="-0.49642">
        <ele>66</ele>
        <time>2012-09-13T09:53:32Z</time>
      </trkpt>
      <trkpt lat="46.32295" lon="-0.4964">
        <ele>65</ele>
        <time>2012-09-13T09:53:37Z</time>
      </trkpt>
      <trkpt lat="46.32301" lon="-0.49639">
        <ele>65</ele>
        <time>2012-09-13T09:53:42Z</time>
      </trkpt>
      <trkpt lat="46.32306" lon="-0.49642">
        <ele>66</ele>
        <time>2012-09-13T09:53:47Z</time>
      </trkpt>
      <trkpt lat="46.32309" lon="-0.49649">
        <ele>67</ele>
        <time>2012-09-13T09:53:52Z</time>
      </trkpt>
      <trkpt lat="46.32309" lon="-0.49657">
        <ele>67</ele>
        <time>2012-09-13T09:53:57Z</time>
      </trkpt>
      <trkpt lat="46.32309" lon="-0.49664">
        <ele>68</ele>
        <time>2012-09-13T09:54:02Z</time>
      </trkpt>
      <trkpt lat="46.32309" lon="-0.49671">
        <ele>68</ele>
        <time>2012-09-13T09:54:07Z</time>
      </trkpt>
      <trkpt lat="46.32308" lon="-0.49679">
        <ele>69</ele>
        <time>2012-09-13T09:54:12Z</time>
      </trkpt>
      <trkpt lat="46.3231" lon="-0.49687">
        <ele>70</ele>
        <time>2012-09-13T09:54:17Z</time>
      </trkpt>
      <trkpt lat="46.3231" lon="-0.49694">
        <ele>69</ele>
        <time>2012-09-13T09:54:22Z</time>
      </trkpt>
      <trkpt lat="46.32308" lon="-0.49699">
        <ele>67</ele>
        <time>2012-09-13T09:54:27Z</time>
      </trkpt>
      <trkpt lat="46.32307" lon="-0.497">
        <ele>67</ele>
        <time>2012-09-13T09:54:32Z</time>
      </trkpt>
      <trkpt lat="46.32307" lon="-0.49699">
        <ele>66</ele>
        <time>2012-09-13T09:54:37Z</time>
      </trkpt>
      <trkpt lat="46.32306" lon="-0.49699">
        <ele>67</ele>
        <time>2012-09-13T09:54:42Z</time>
      </trkpt>
      <trkpt lat="46.32304" lon="-0.497">
        <ele>67</ele>
        <time>2012-09-13T09:54:47Z</time>
      </trkpt>
      <trkpt lat="46.32301" lon="-0.49699">
        <ele>69</ele>
        <time>2012-09-13T09:54:52Z</time>
      </trkpt>
      <trkpt lat="46.32297" lon="-0.49699">
        <ele>68</ele>
        <time>2012-09-13T09:54:57Z</time>
      </trkpt>
      <trkpt lat="46.32292" lon="-0.49696">
        <ele>69</ele>
        <time>2012-09-13T09:55:02Z</time>
      </trkpt>
      <trkpt lat="46.32289" lon="-0.49694">
        <ele>68</ele>
        <time>2012-09-13T09:55:07Z</time>
      </trkpt>
      <trkpt lat="46.32283" lon="-0.49692">
        <ele>69</ele>
        <time>2012-09-13T09:55:12Z</time>
      </trkpt>
      <trkpt lat="46.32278" lon="-0.49687">
        <ele>71</ele>
        <time>2012-09-13T09:55:17Z</time>
      </trkpt>
      <trkpt lat="46.32273" lon="-0.49686">
        <ele>70</ele>
        <time>2012-09-13T09:55:22Z</time>
      </trkpt>
      <trkpt lat="46.32268" lon="-0.49683">
        <ele>68</ele>
        <time>2012-09-13T09:55:27Z</time>
      </trkpt>
      <trkpt lat="46.32266" lon="-0.49681">
        <ele>65</ele>
        <time>2012-09-13T09:55:32Z</time>
      </trkpt>
      <trkpt lat="46.32262" lon="-0.49679">
        <ele>64</ele>
        <time>2012-09-13T09:55:37Z</time>
      </trkpt>
      <trkpt lat="46.32258" lon="-0.49676">
        <ele>64</ele>
        <time>2012-09-13T09:55:42Z</time>
      </trkpt>
      <trkpt lat="46.32253" lon="-0.49672">
        <ele>64</ele>
        <time>2012-09-13T09:55:47Z</time>
      </trkpt>
      <trkpt lat="46.32248" lon="-0.49669">
        <ele>66</ele>
        <time>2012-09-13T09:55:52Z</time>
      </trkpt>
      <trkpt lat="46.32243" lon="-0.49665">
        <ele>66</ele>
        <time>2012-09-13T09:55:57Z</time>
      </trkpt>
      <trkpt lat="46.32238" lon="-0.49662">
        <ele>66</ele>
        <time>2012-09-13T09:56:02Z</time>
      </trkpt>
      <trkpt lat="46.32232" lon="-0.49658">
        <ele>66</ele>
        <time>2012-09-13T09:56:07Z</time>
      </trkpt>
      <trkpt lat="46.32227" lon="-0.49656">
        <ele>66</ele>
        <time>2012-09-13T09:56:12Z</time>
      </trkpt>
      <trkpt lat="46.32222" lon="-0.49653">
        <ele>67</ele>
        <time>2012-09-13T09:56:17Z</time>
      </trkpt>
      <trkpt lat="46.32217" lon="-0.4965">
        <ele>66</ele>
        <time>2012-09-13T09:56:22Z</time>
      </trkpt>
      <trkpt lat="46.32213" lon="-0.49647">
        <ele>67</ele>
        <time>2012-09-13T09:56:27Z</time>
      </trkpt>
      <trkpt lat="46.32208" lon="-0.49643">
        <ele>66</ele>
        <time>2012-09-13T09:56:32Z</time>
      </trkpt>
      <trkpt lat="46.32202" lon="-0.49639">
        <ele>66</ele>
        <time>2012-09-13T09:56:37Z</time>
      </trkpt>
      <trkpt lat="46.32197" lon="-0.49635">
        <ele>67</ele>
        <time>2012-09-13T09:56:42Z</time>
      </trkpt>
      <trkpt lat="46.32192" lon="-0.49631">
        <ele>68</ele>
        <time>2012-09-13T09:56:47Z</time>
      </trkpt>
      <trkpt lat="46.32188" lon="-0.49626">
        <ele>70</ele>
        <time>2012-09-13T09:56:52Z</time>
      </trkpt>
      <trkpt lat="46.32182" lon="-0.49622">
        <ele>70</ele>
        <time>2012-09-13T09:56:57Z</time>
      </trkpt>
      <trkpt lat="46.32178" lon="-0.4962">
        <ele>71</ele>
        <time>2012-09-13T09:57:02Z</time>
      </trkpt>
      <trkpt lat="46.32173" lon="-0.49617">
        <ele>71</ele>
        <time>2012-09-13T09:57:07Z</time>
      </trkpt>
      <trkpt lat="46.32168" lon="-0.49612">
        <ele>70</ele>
        <time>2012-09-13T09:57:12Z</time>
      </trkpt>
      <trkpt lat="46.32164" lon="-0.49608">
        <ele>69</ele>
        <time>2012-09-13T09:57:17Z</time>
      </trkpt>
      <trkpt lat="46.32159" lon="-0.49605">
        <ele>69</ele>
        <time>2012-09-13T09:57:22Z</time>
      </trkpt>
      <trkpt lat="46.32153" lon="-0.49602">
        <ele>69</ele>
        <time>2012-09-13T09:57:27Z</time>
      </trkpt>
      <trkpt lat="46.32147" lon="-0.49598">
        <ele>71</ele>
        <time>2012-09-13T09:57:32Z</time>
      </trkpt>
      <trkpt lat="46.32144" lon="-0.49592">
        <ele>69</ele>
        <time>2012-09-13T09:57:37Z</time>
      </trkpt>
      <trkpt lat="46.32137" lon="-0.49588">
        <ele>73</ele>
        <time>2012-09-13T09:57:42Z</time>
      </trkpt>
      <trkpt lat="46.32135" lon="-0.49584">
        <ele>71</ele>
        <time>2012-09-13T09:57:47Z</time>
      </trkpt>
      <trkpt lat="46.3213" lon="-0.49582">
        <ele>71</ele>
        <time>2012-09-13T09:57:52Z</time>
      </trkpt>
      <trkpt lat="46.32127" lon="-0.4958">
        <ele>70</ele>
        <time>2012-09-13T09:57:57Z</time>
      </trkpt>
      <trkpt lat="46.32123" lon="-0.49577">
        <ele>70</ele>
        <time>2012-09-13T09:58:02Z</time>
      </trkpt>
      <trkpt lat="46.32118" lon="-0.49574">
        <ele>69</ele>
        <time>2012-09-13T09:58:07Z</time>
      </trkpt>
      <trkpt lat="46.32114" lon="-0.49572">
        <ele>68</ele>
        <time>2012-09-13T09:58:12Z</time>
      </trkpt>
      <trkpt lat="46.32111" lon="-0.49568">
        <ele>66</ele>
        <time>2012-09-13T09:58:17Z</time>
      </trkpt>
      <trkpt lat="46.32108" lon="-0.49565">
        <ele>65</ele>
        <time>2012-09-13T09:58:22Z</time>
      </trkpt>
      <trkpt lat="46.32105" lon="-0.4956">
        <ele>65</ele>
        <time>2012-09-13T09:58:27Z</time>
      </trkpt>
      <trkpt lat="46.321" lon="-0.49556">
        <ele>64</ele>
        <time>2012-09-13T09:58:32Z</time>
      </trkpt>
      <trkpt lat="46.32095" lon="-0.49551">
        <ele>65</ele>
        <time>2012-09-13T09:58:37Z</time>
      </trkpt>
      <trkpt lat="46.32089" lon="-0.49548">
        <ele>65</ele>
        <time>2012-09-13T09:58:42Z</time>
      </trkpt>
      <trkpt lat="46.32084" lon="-0.49546">
        <ele>64</ele>
        <time>2012-09-13T09:58:47Z</time>
      </trkpt>
      <trkpt lat="46.3208" lon="-0.49541">
        <ele>65</ele>
        <time>2012-09-13T09:58:52Z</time>
      </trkpt>
      <trkpt lat="46.32077" lon="-0.49537">
        <ele>64</ele>
        <time>2012-09-13T09:58:57Z</time>
      </trkpt>
      <trkpt lat="46.32075" lon="-0.49533">
        <ele>63</ele>
        <time>2012-09-13T09:59:02Z</time>
      </trkpt>
      <trkpt lat="46.32072" lon="-0.49528">
        <ele>64</ele>
        <time>2012-09-13T09:59:07Z</time>
      </trkpt>
      <trkpt lat="46.32069" lon="-0.49524">
        <ele>64</ele>
        <time>2012-09-13T09:59:12Z</time>
      </trkpt>
      <trkpt lat="46.32068" lon="-0.49522">
        <ele>65</ele>
        <time>2012-09-13T09:59:17Z</time>
      </trkpt>
      <trkpt lat="46.32057" lon="-0.49515">
        <ele>65</ele>
        <time>2012-09-13T09:59:22Z</time>
      </trkpt>
      <trkpt lat="46.32054" lon="-0.49509">
        <ele>65</ele>
        <time>2012-09-13T09:59:27Z</time>
      </trkpt>
      <trkpt lat="46.32041" lon="-0.49503">
        <ele>74</ele>
        <time>2012-09-13T09:59:32Z</time>
      </trkpt>
      <trkpt lat="46.32037" lon="-0.49499">
        <ele>74</ele>
        <time>2012-09-13T09:59:37Z</time>
      </trkpt>
      <trkpt lat="46.32032" lon="-0.49494">
        <ele>74</ele>
        <time>2012-09-13T09:59:42Z</time>
      </trkpt>
      <trkpt lat="46.32029" lon="-0.49488">
        <ele>73</ele>
        <time>2012-09-13T09:59:47Z</time>
      </trkpt>
      <trkpt lat="46.32026" lon="-0.49484">
        <ele>74</ele>
        <time>2012-09-13T09:59:52Z</time>
      </trkpt>
      <trkpt lat="46.32024" lon="-0.49479">
        <ele>74</ele>
        <time>2012-09-13T09:59:57Z</time>
      </trkpt>
      <trkpt lat="46.32025" lon="-0.4947">
        <ele>71</ele>
        <time>2012-09-13T10:00:02Z</time>
      </trkpt>
      <trkpt lat="46.32023" lon="-0.49463">
        <ele>69</ele>
        <time>2012-09-13T10:00:07Z</time>
      </trkpt>
      <trkpt lat="46.32019" lon="-0.49456">
        <ele>68</ele>
        <time>2012-09-13T10:00:12Z</time>
      </trkpt>
      <trkpt lat="46.32016" lon="-0.49451">
        <ele>66</ele>
        <time>2012-09-13T10:00:17Z</time>
      </trkpt>
      <trkpt lat="46.32011" lon="-0.49446">
        <ele>66</ele>
        <time>2012-09-13T10:00:22Z</time>
      </trkpt>
      <trkpt lat="46.32011" lon="-0.4944">
        <ele>66</ele>
        <time>2012-09-13T10:00:27Z</time>
      </trkpt>
      <trkpt lat="46.32008" lon="-0.49431">
        <ele>66</ele>
        <time>2012-09-13T10:00:32Z</time>
      </trkpt>
      <trkpt lat="46.32002" lon="-0.49426">
        <ele>68</ele>
        <time>2012-09-13T10:00:37Z</time>
      </trkpt>
      <trkpt lat="46.31998" lon="-0.49419">
        <ele>66</ele>
        <time>2012-09-13T10:00:42Z</time>
      </trkpt>
      <trkpt lat="46.31995" lon="-0.49411">
        <ele>63</ele>
        <time>2012-09-13T10:00:47Z</time>
      </trkpt>
      <trkpt lat="46.3199" lon="-0.49404">
        <ele>63</ele>
        <time>2012-09-13T10:00:52Z</time>
      </trkpt>
      <trkpt lat="46.31989" lon="-0.49397">
        <ele>61</ele>
        <time>2012-09-13T10:00:57Z</time>
      </trkpt>
      <trkpt lat="46.31993" lon="-0.49388">
        <ele>60</ele>
        <time>2012-09-13T10:01:02Z</time>
      </trkpt>
      <trkpt lat="46.31994" lon="-0.49379">
        <ele>61</ele>
        <time>2012-09-13T10:01:07Z</time>
      </trkpt>
      <trkpt lat="46.31995" lon="-0.49374">
        <ele>60</ele>
        <time>2012-09-13T10:01:12Z</time>
      </trkpt>
      <trkpt lat="46.31993" lon="-0.49362">
        <ele>61</ele>
        <time>2012-09-13T10:01:17Z</time>
      </trkpt>
      <trkpt lat="46.31993" lon="-0.49353">
        <ele>60</ele>
        <time>2012-09-13T10:01:22Z</time>
      </trkpt>
      <trkpt lat="46.31992" lon="-0.49344">
        <ele>59</ele>
        <time>2012-09-13T10:01:27Z</time>
      </trkpt>
      <trkpt lat="46.3199" lon="-0.49332">
        <ele>60</ele>
        <time>2012-09-13T10:01:32Z</time>
      </trkpt>
      <trkpt lat="46.31992" lon="-0.49326">
        <ele>58</ele>
        <time>2012-09-13T10:01:37Z</time>
      </trkpt>
      <trkpt lat="46.31993" lon="-0.4932">
        <ele>57</ele>
        <time>2012-09-13T10:01:42Z</time>
      </trkpt>
      <trkpt lat="46.31989" lon="-0.49313">
        <ele>61</ele>
        <time>2012-09-13T10:01:47Z</time>
      </trkpt>
      <trkpt lat="46.31979" lon="-0.49309">
        <ele>73</ele>
        <time>2012-09-13T10:01:52Z</time>
      </trkpt>
      <trkpt lat="46.31975" lon="-0.49303">
        <ele>74</ele>
        <time>2012-09-13T10:01:57Z</time>
      </trkpt>
      <trkpt lat="46.31974" lon="-0.49297">
        <ele>71</ele>
        <time>2012-09-13T10:02:02Z</time>
      </trkpt>
      <trkpt lat="46.31976" lon="-0.49289">
        <ele>68</ele>
        <time>2012-09-13T10:02:07Z</time>
      </trkpt>
      <trkpt lat="46.31978" lon="-0.4928">
        <ele>66</ele>
        <time>2012-09-13T10:02:12Z</time>
      </trkpt>
      <trkpt lat="46.31976" lon="-0.49274">
        <ele>65</ele>
        <time>2012-09-13T10:02:17Z</time>
      </trkpt>
      <trkpt lat="46.31976" lon="-0.49268">
        <ele>64</ele>
        <time>2012-09-13T10:02:22Z</time>
      </trkpt>
      <trkpt lat="46.31975" lon="-0.49261">
        <ele>63</ele>
        <time>2012-09-13T10:02:27Z</time>
      </trkpt>
      <trkpt lat="46.3198" lon="-0.49251">
        <ele>65</ele>
        <time>2012-09-13T10:02:32Z</time>
      </trkpt>
      <trkpt lat="46.31984" lon="-0.49246">
        <ele>64</ele>
        <time>2012-09-13T10:02:37Z</time>
      </trkpt>
      <trkpt lat="46.31987" lon="-0.49243">
        <ele>63</ele>
        <time>2012-09-13T10:02:42Z</time>
      </trkpt>
      <trkpt lat="46.3199" lon="-0.49236">
        <ele>63</ele>
        <time>2012-09-13T10:02:47Z</time>
      </trkpt>
      <trkpt lat="46.31995" lon="-0.49232">
        <ele>62</ele>
        <time>2012-09-13T10:02:52Z</time>
      </trkpt>
      <trkpt lat="46.31998" lon="-0.49227">
        <ele>62</ele>
        <time>2012-09-13T10:02:57Z</time>
      </trkpt>
      <trkpt lat="46.32002" lon="-0.49222">
        <ele>63</ele>
        <time>2012-09-13T10:03:02Z</time>
      </trkpt>
      <trkpt lat="46.32006" lon="-0.49216">
        <ele>62</ele>
        <time>2012-09-13T10:03:07Z</time>
      </trkpt>
      <trkpt lat="46.32009" lon="-0.49212">
        <ele>62</ele>
        <time>2012-09-13T10:03:12Z</time>
      </trkpt>
      <trkpt lat="46.32014" lon="-0.49208">
        <ele>62</ele>
        <time>2012-09-13T10:03:17Z</time>
      </trkpt>
      <trkpt lat="46.32017" lon="-0.49203">
        <ele>63</ele>
        <time>2012-09-13T10:03:22Z</time>
      </trkpt>
      <trkpt lat="46.32021" lon="-0.49198">
        <ele>64</ele>
        <time>2012-09-13T10:03:27Z</time>
      </trkpt>
      <trkpt lat="46.32025" lon="-0.49193">
        <ele>65</ele>
        <time>2012-09-13T10:03:32Z</time>
      </trkpt>
      <trkpt lat="46.32028" lon="-0.49188">
        <ele>65</ele>
        <time>2012-09-13T10:03:37Z</time>
      </trkpt>
      <trkpt lat="46.32031" lon="-0.49185">
        <ele>65</ele>
        <time>2012-09-13T10:03:42Z</time>
      </trkpt>
      <trkpt lat="46.32035" lon="-0.4918">
        <ele>64</ele>
        <time>2012-09-13T10:03:47Z</time>
      </trkpt>
      <trkpt lat="46.32039" lon="-0.49176">
        <ele>63</ele>
        <time>2012-09-13T10:03:52Z</time>
      </trkpt>
      <trkpt lat="46.32044" lon="-0.4917">
        <ele>63</ele>
        <time>2012-09-13T10:03:57Z</time>
      </trkpt>
      <trkpt lat="46.32047" lon="-0.49167">
        <ele>63</ele>
        <time>2012-09-13T10:04:02Z</time>
      </trkpt>
      <trkpt lat="46.32052" lon="-0.49162">
        <ele>63</ele>
        <time>2012-09-13T10:04:07Z</time>
      </trkpt>
      <trkpt lat="46.32055" lon="-0.49157">
        <ele>63</ele>
        <time>2012-09-13T10:04:12Z</time>
      </trkpt>
      <trkpt lat="46.3206" lon="-0.49151">
        <ele>63</ele>
        <time>2012-09-13T10:04:17Z</time>
      </trkpt>
      <trkpt lat="46.32064" lon="-0.49147">
        <ele>63</ele>
        <time>2012-09-13T10:04:22Z</time>
      </trkpt>
      <trkpt lat="46.32068" lon="-0.49142">
        <ele>63</ele>
        <time>2012-09-13T10:04:27Z</time>
      </trkpt>
      <trkpt lat="46.32071" lon="-0.49138">
        <ele>63</ele>
        <time>2012-09-13T10:04:32Z</time>
      </trkpt>
      <trkpt lat="46.32077" lon="-0.49133">
        <ele>62</ele>
        <time>2012-09-13T10:04:37Z</time>
      </trkpt>
      <trkpt lat="46.32082" lon="-0.49127">
        <ele>60</ele>
        <time>2012-09-13T10:04:42Z</time>
      </trkpt>
      <trkpt lat="46.32085" lon="-0.49124">
        <ele>59</ele>
        <time>2012-09-13T10:04:47Z</time>
      </trkpt>
      <trkpt lat="46.3209" lon="-0.4912">
        <ele>59</ele>
        <time>2012-09-13T10:04:52Z</time>
      </trkpt>
      <trkpt lat="46.32095" lon="-0.49114">
        <ele>60</ele>
        <time>2012-09-13T10:04:57Z</time>
      </trkpt>
      <trkpt lat="46.32099" lon="-0.49111">
        <ele>61</ele>
        <time>2012-09-13T10:05:02Z</time>
      </trkpt>
      <trkpt lat="46.32104" lon="-0.49106">
        <ele>62</ele>
        <time>2012-09-13T10:05:07Z</time>
      </trkpt>
      <trkpt lat="46.32108" lon="-0.49101">
        <ele>62</ele>
        <time>2012-09-13T10:05:12Z</time>
      </trkpt>
      <trkpt lat="46.32113" lon="-0.49096">
        <ele>63</ele>
        <time>2012-09-13T10:05:17Z</time>
      </trkpt>
      <trkpt lat="46.32117" lon="-0.4909">
        <ele>63</ele>
        <time>2012-09-13T10:05:22Z</time>
      </trkpt>
      <trkpt lat="46.32122" lon="-0.49087">
        <ele>63</ele>
        <time>2012-09-13T10:05:27Z</time>
      </trkpt>
      <trkpt lat="46.32127" lon="-0.49083">
        <ele>63</ele>
        <time>2012-09-13T10:05:32Z</time>
      </trkpt>
      <trkpt lat="46.32132" lon="-0.4908">
        <ele>64</ele>
        <time>2012-09-13T10:05:37Z</time>
      </trkpt>
      <trkpt lat="46.32136" lon="-0.49075">
        <ele>65</ele>
        <time>2012-09-13T10:05:42Z</time>
      </trkpt>
      <trkpt lat="46.3214" lon="-0.4907">
        <ele>66</ele>
        <time>2012-09-13T10:05:47Z</time>
      </trkpt>
      <trkpt lat="46.32144" lon="-0.49066">
        <ele>66</ele>
        <time>2012-09-13T10:05:52Z</time>
      </trkpt>
      <trkpt lat="46.3215" lon="-0.49063">
        <ele>67</ele>
        <time>2012-09-13T10:05:57Z</time>
      </trkpt>
      <trkpt lat="46.32156" lon="-0.49058">
        <ele>67</ele>
        <time>2012-09-13T10:06:02Z</time>
      </trkpt>
      <trkpt lat="46.3216" lon="-0.49055">
        <ele>67</ele>
        <time>2012-09-13T10:06:07Z</time>
      </trkpt>
      <trkpt lat="46.32165" lon="-0.49053">
        <ele>68</ele>
        <time>2012-09-13T10:06:12Z</time>
      </trkpt>
      <trkpt lat="46.3217" lon="-0.49051">
        <ele>66</ele>
        <time>2012-09-13T10:06:17Z</time>
      </trkpt>
      <trkpt lat="46.32176" lon="-0.4905">
        <ele>65</ele>
        <time>2012-09-13T10:06:22Z</time>
      </trkpt>
      <trkpt lat="46.32177" lon="-0.49048">
        <ele>65</ele>
        <time>2012-09-13T10:06:27Z</time>
      </trkpt>
      <trkpt lat="46.32183" lon="-0.49044">
        <ele>65</ele>
        <time>2012-09-13T10:06:32Z</time>
      </trkpt>
      <trkpt lat="46.3219" lon="-0.4904">
        <ele>65</ele>
        <time>2012-09-13T10:06:37Z</time>
      </trkpt>
      <trkpt lat="46.32196" lon="-0.49037">
        <ele>65</ele>
        <time>2012-09-13T10:06:42Z</time>
      </trkpt>
      <trkpt lat="46.32201" lon="-0.49033">
        <ele>65</ele>
        <time>2012-09-13T10:06:47Z</time>
      </trkpt>
      <trkpt lat="46.32206" lon="-0.49031">
        <ele>66</ele>
        <time>2012-09-13T10:06:52Z</time>
      </trkpt>
      <trkpt lat="46.32211" lon="-0.49027">
        <ele>66</ele>
        <time>2012-09-13T10:06:57Z</time>
      </trkpt>
      <trkpt lat="46.32217" lon="-0.49025">
        <ele>65</ele>
        <time>2012-09-13T10:07:02Z</time>
      </trkpt>
      <trkpt lat="46.32221" lon="-0.49023">
        <ele>63</ele>
        <time>2012-09-13T10:07:07Z</time>
      </trkpt>
      <trkpt lat="46.32226" lon="-0.4902">
        <ele>63</ele>
        <time>2012-09-13T10:07:12Z</time>
      </trkpt>
      <trkpt lat="46.32231" lon="-0.49018">
        <ele>63</ele>
        <time>2012-09-13T10:07:17Z</time>
      </trkpt>
      <trkpt lat="46.32233" lon="-0.49016">
        <ele>68</ele>
        <time>2012-09-13T10:07:22Z</time>
      </trkpt>
      <trkpt lat="46.3224" lon="-0.49015">
        <ele>67</ele>
        <time>2012-09-13T10:07:27Z</time>
      </trkpt>
      <trkpt lat="46.32246" lon="-0.49012">
        <ele>65</ele>
        <time>2012-09-13T10:07:32Z</time>
      </trkpt>
      <trkpt lat="46.32252" lon="-0.49009">
        <ele>64</ele>
        <time>2012-09-13T10:07:37Z</time>
      </trkpt>
      <trkpt lat="46.32258" lon="-0.49009">
        <ele>64</ele>
        <time>2012-09-13T10:07:42Z</time>
      </trkpt>
      <trkpt lat="46.32263" lon="-0.49007">
        <ele>64</ele>
        <time>2012-09-13T10:07:47Z</time>
      </trkpt>
      <trkpt lat="46.32269" lon="-0.49005">
        <ele>64</ele>
        <time>2012-09-13T10:07:52Z</time>
      </trkpt>
      <trkpt lat="46.32274" lon="-0.49002">
        <ele>63</ele>
        <time>2012-09-13T10:07:57Z</time>
      </trkpt>
      <trkpt lat="46.3228" lon="-0.49001">
        <ele>60</ele>
        <time>2012-09-13T10:08:02Z</time>
      </trkpt>
      <trkpt lat="46.32285" lon="-0.48999">
        <ele>60</ele>
        <time>2012-09-13T10:08:07Z</time>
      </trkpt>
      <trkpt lat="46.32291" lon="-0.48999">
        <ele>59</ele>
        <time>2012-09-13T10:08:12Z</time>
      </trkpt>
      <trkpt lat="46.32297" lon="-0.48998">
        <ele>59</ele>
        <time>2012-09-13T10:08:17Z</time>
      </trkpt>
      <trkpt lat="46.32302" lon="-0.48995">
        <ele>59</ele>
        <time>2012-09-13T10:08:22Z</time>
      </trkpt>
      <trkpt lat="46.32307" lon="-0.48993">
        <ele>59</ele>
        <time>2012-09-13T10:08:27Z</time>
      </trkpt>
      <trkpt lat="46.32312" lon="-0.48992">
        <ele>59</ele>
        <time>2012-09-13T10:08:32Z</time>
      </trkpt>
      <trkpt lat="46.32316" lon="-0.48989">
        <ele>61</ele>
        <time>2012-09-13T10:08:37Z</time>
      </trkpt>
      <trkpt lat="46.3232" lon="-0.48987">
        <ele>61</ele>
        <time>2012-09-13T10:08:42Z</time>
      </trkpt>
      <trkpt lat="46.32325" lon="-0.48984">
        <ele>61</ele>
        <time>2012-09-13T10:08:47Z</time>
      </trkpt>
      <trkpt lat="46.32329" lon="-0.48983">
        <ele>60</ele>
        <time>2012-09-13T10:08:52Z</time>
      </trkpt>
      <trkpt lat="46.32334" lon="-0.48981">
        <ele>61</ele>
        <time>2012-09-13T10:08:57Z</time>
      </trkpt>
      <trkpt lat="46.32339" lon="-0.48979">
        <ele>59</ele>
        <time>2012-09-13T10:09:02Z</time>
      </trkpt>
      <trkpt lat="46.32345" lon="-0.48977">
        <ele>57</ele>
        <time>2012-09-13T10:09:07Z</time>
      </trkpt>
      <trkpt lat="46.32351" lon="-0.48973">
        <ele>57</ele>
        <time>2012-09-13T10:09:12Z</time>
      </trkpt>
      <trkpt lat="46.32356" lon="-0.48973">
        <ele>56</ele>
        <time>2012-09-13T10:09:17Z</time>
      </trkpt>
      <trkpt lat="46.32362" lon="-0.48971">
        <ele>56</ele>
        <time>2012-09-13T10:09:22Z</time>
      </trkpt>
      <trkpt lat="46.32368" lon="-0.48968">
        <ele>57</ele>
        <time>2012-09-13T10:09:27Z</time>
      </trkpt>
      <trkpt lat="46.32372" lon="-0.48967">
        <ele>56</ele>
        <time>2012-09-13T10:09:32Z</time>
      </trkpt>
      <trkpt lat="46.32377" lon="-0.48965">
        <ele>57</ele>
        <time>2012-09-13T10:09:37Z</time>
      </trkpt>
      <trkpt lat="46.32383" lon="-0.48963">
        <ele>57</ele>
        <time>2012-09-13T10:09:42Z</time>
      </trkpt>
      <trkpt lat="46.32389" lon="-0.48959">
        <ele>57</ele>
        <time>2012-09-13T10:09:47Z</time>
      </trkpt>
      <trkpt lat="46.32394" lon="-0.48957">
        <ele>57</ele>
        <time>2012-09-13T10:09:52Z</time>
      </trkpt>
      <trkpt lat="46.324" lon="-0.48955">
        <ele>56</ele>
        <time>2012-09-13T10:09:57Z</time>
      </trkpt>
      <trkpt lat="46.32406" lon="-0.48955">
        <ele>56</ele>
        <time>2012-09-13T10:10:02Z</time>
      </trkpt>
      <trkpt lat="46.3241" lon="-0.48954">
        <ele>57</ele>
        <time>2012-09-13T10:10:07Z</time>
      </trkpt>
      <trkpt lat="46.32416" lon="-0.4895">
        <ele>57</ele>
        <time>2012-09-13T10:10:12Z</time>
      </trkpt>
      <trkpt lat="46.32421" lon="-0.48949">
        <ele>58</ele>
        <time>2012-09-13T10:10:17Z</time>
      </trkpt>
      <trkpt lat="46.32425" lon="-0.48945">
        <ele>60</ele>
        <time>2012-09-13T10:10:22Z</time>
      </trkpt>
      <trkpt lat="46.32431" lon="-0.48943">
        <ele>59</ele>
        <time>2012-09-13T10:10:27Z</time>
      </trkpt>
      <trkpt lat="46.32437" lon="-0.48941">
        <ele>58</ele>
        <time>2012-09-13T10:10:32Z</time>
      </trkpt>
      <trkpt lat="46.32443" lon="-0.48939">
        <ele>57</ele>
        <time>2012-09-13T10:10:37Z</time>
      </trkpt>
      <trkpt lat="46.32448" lon="-0.48937">
        <ele>57</ele>
        <time>2012-09-13T10:10:42Z</time>
      </trkpt>
      <trkpt lat="46.32452" lon="-0.48936">
        <ele>58</ele>
        <time>2012-09-13T10:10:47Z</time>
      </trkpt>
      <trkpt lat="46.32457" lon="-0.48935">
        <ele>59</ele>
        <time>2012-09-13T10:10:52Z</time>
      </trkpt>
      <trkpt lat="46.32462" lon="-0.48932">
        <ele>61</ele>
        <time>2012-09-13T10:10:57Z</time>
      </trkpt>
      <trkpt lat="46.32468" lon="-0.4893">
        <ele>61</ele>
        <time>2012-09-13T10:11:02Z</time>
      </trkpt>
      <trkpt lat="46.32473" lon="-0.48927">
        <ele>60</ele>
        <time>2012-09-13T10:11:07Z</time>
      </trkpt>
      <trkpt lat="46.32478" lon="-0.48926">
        <ele>61</ele>
        <time>2012-09-13T10:11:12Z</time>
      </trkpt>
      <trkpt lat="46.32482" lon="-0.48926">
        <ele>62</ele>
        <time>2012-09-13T10:11:17Z</time>
      </trkpt>
      <trkpt lat="46.32486" lon="-0.48924">
        <ele>64</ele>
        <time>2012-09-13T10:11:22Z</time>
      </trkpt>
      <trkpt lat="46.32491" lon="-0.48923">
        <ele>64</ele>
        <time>2012-09-13T10:11:27Z</time>
      </trkpt>
      <trkpt lat="46.32495" lon="-0.48923">
        <ele>67</ele>
        <time>2012-09-13T10:11:32Z</time>
      </trkpt>
      <trkpt lat="46.325" lon="-0.4892">
        <ele>68</ele>
        <time>2012-09-13T10:11:37Z</time>
      </trkpt>
      <trkpt lat="46.32505" lon="-0.48919">
        <ele>69</ele>
        <time>2012-09-13T10:11:42Z</time>
      </trkpt>
      <trkpt lat="46.32508" lon="-0.48918">
        <ele>73</ele>
        <time>2012-09-13T10:11:47Z</time>
      </trkpt>
      <trkpt lat="46.32513" lon="-0.48915">
        <ele>74</ele>
        <time>2012-09-13T10:11:52Z</time>
      </trkpt>
      <trkpt lat="46.32518" lon="-0.48914">
        <ele>74</ele>
        <time>2012-09-13T10:11:57Z</time>
      </trkpt>
      <trkpt lat="46.32524" lon="-0.48913">
        <ele>74</ele>
        <time>2012-09-13T10:12:02Z</time>
      </trkpt>
      <trkpt lat="46.32528" lon="-0.48911">
        <ele>77</ele>
        <time>2012-09-13T10:12:07Z</time>
      </trkpt>
      <trkpt lat="46.32532" lon="-0.48909">
        <ele>79</ele>
        <time>2012-09-13T10:12:12Z</time>
      </trkpt>
      <trkpt lat="46.32538" lon="-0.48905">
        <ele>76</ele>
        <time>2012-09-13T10:12:17Z</time>
      </trkpt>
      <trkpt lat="46.32544" lon="-0.48903">
        <ele>73</ele>
        <time>2012-09-13T10:12:22Z</time>
      </trkpt>
      <trkpt lat="46.3255" lon="-0.48901">
        <ele>72</ele>
        <time>2012-09-13T10:12:27Z</time>
      </trkpt>
      <trkpt lat="46.32555" lon="-0.48899">
        <ele>69</ele>
        <time>2012-09-13T10:12:32Z</time>
      </trkpt>
      <trkpt lat="46.32561" lon="-0.48897">
        <ele>69</ele>
        <time>2012-09-13T10:12:37Z</time>
      </trkpt>
      <trkpt lat="46.32567" lon="-0.48894">
        <ele>68</ele>
        <time>2012-09-13T10:12:42Z</time>
      </trkpt>
      <trkpt lat="46.3257" lon="-0.48893">
        <ele>70</ele>
        <time>2012-09-13T10:12:47Z</time>
      </trkpt>
      <trkpt lat="46.32578" lon="-0.4889">
        <ele>67</ele>
        <time>2012-09-13T10:12:52Z</time>
      </trkpt>
      <trkpt lat="46.32583" lon="-0.4889">
        <ele>66</ele>
        <time>2012-09-13T10:12:57Z</time>
      </trkpt>
      <trkpt lat="46.32585" lon="-0.48889">
        <ele>71</ele>
        <time>2012-09-13T10:13:02Z</time>
      </trkpt>
      <trkpt lat="46.32589" lon="-0.48886">
        <ele>71</ele>
        <time>2012-09-13T10:13:07Z</time>
      </trkpt>
      <trkpt lat="46.32596" lon="-0.48888">
        <ele>70</ele>
        <time>2012-09-13T10:13:12Z</time>
      </trkpt>
      <trkpt lat="46.32604" lon="-0.48885">
        <ele>66</ele>
        <time>2012-09-13T10:13:17Z</time>
      </trkpt>
      <trkpt lat="46.32611" lon="-0.48882">
        <ele>65</ele>
        <time>2012-09-13T10:13:22Z</time>
      </trkpt>
      <trkpt lat="46.32616" lon="-0.4888">
        <ele>66</ele>
        <time>2012-09-13T10:13:27Z</time>
      </trkpt>
      <trkpt lat="46.32622" lon="-0.4888">
        <ele>65</ele>
        <time>2012-09-13T10:13:32Z</time>
      </trkpt>
      <trkpt lat="46.32628" lon="-0.48878">
        <ele>64</ele>
        <time>2012-09-13T10:13:37Z</time>
      </trkpt>
      <trkpt lat="46.32633" lon="-0.48879">
        <ele>63</ele>
        <time>2012-09-13T10:13:42Z</time>
      </trkpt>
      <trkpt lat="46.3264" lon="-0.48881">
        <ele>62</ele>
        <time>2012-09-13T10:13:47Z</time>
      </trkpt>
      <trkpt lat="46.32645" lon="-0.48882">
        <ele>61</ele>
        <time>2012-09-13T10:13:52Z</time>
      </trkpt>
      <trkpt lat="46.32651" lon="-0.48884">
        <ele>60</ele>
        <time>2012-09-13T10:13:57Z</time>
      </trkpt>
      <trkpt lat="46.32656" lon="-0.48884">
        <ele>62</ele>
        <time>2012-09-13T10:14:02Z</time>
      </trkpt>
      <trkpt lat="46.32661" lon="-0.48885">
        <ele>63</ele>
        <time>2012-09-13T10:14:07Z</time>
      </trkpt>
      <trkpt lat="46.32665" lon="-0.48889">
        <ele>62</ele>
        <time>2012-09-13T10:14:12Z</time>
      </trkpt>
      <trkpt lat="46.32671" lon="-0.48891">
        <ele>62</ele>
        <time>2012-09-13T10:14:17Z</time>
      </trkpt>
      <trkpt lat="46.32674" lon="-0.48895">
        <ele>62</ele>
        <time>2012-09-13T10:14:22Z</time>
      </trkpt>
      <trkpt lat="46.32679" lon="-0.48899">
        <ele>61</ele>
        <time>2012-09-13T10:14:27Z</time>
      </trkpt>
      <trkpt lat="46.32684" lon="-0.48903">
        <ele>59</ele>
        <time>2012-09-13T10:14:32Z</time>
      </trkpt>
      <trkpt lat="46.32688" lon="-0.48909">
        <ele>59</ele>
        <time>2012-09-13T10:14:37Z</time>
      </trkpt>
      <trkpt lat="46.32692" lon="-0.48915">
        <ele>58</ele>
        <time>2012-09-13T10:14:42Z</time>
      </trkpt>
      <trkpt lat="46.32695" lon="-0.48922">
        <ele>58</ele>
        <time>2012-09-13T10:14:47Z</time>
      </trkpt>
      <trkpt lat="46.327" lon="-0.48929">
        <ele>58</ele>
        <time>2012-09-13T10:14:52Z</time>
      </trkpt>
      <trkpt lat="46.32703" lon="-0.48934">
        <ele>54</ele>
        <time>2012-09-13T10:14:57Z</time>
      </trkpt>
      <trkpt lat="46.32704" lon="-0.48942">
        <ele>55</ele>
        <time>2012-09-13T10:15:02Z</time>
      </trkpt>
      <trkpt lat="46.32704" lon="-0.4895">
        <ele>57</ele>
        <time>2012-09-13T10:15:07Z</time>
      </trkpt>
      <trkpt lat="46.32707" lon="-0.48955">
        <ele>58</ele>
        <time>2012-09-13T10:15:12Z</time>
      </trkpt>
      <trkpt lat="46.32707" lon="-0.48961">
        <ele>59</ele>
        <time>2012-09-13T10:15:17Z</time>
      </trkpt>
      <trkpt lat="46.32706" lon="-0.48969">
        <ele>57</ele>
        <time>2012-09-13T10:15:22Z</time>
      </trkpt>
      <trkpt lat="46.32705" lon="-0.48976">
        <ele>57</ele>
        <time>2012-09-13T10:15:27Z</time>
      </trkpt>
      <trkpt lat="46.32702" lon="-0.48981">
        <ele>54</ele>
        <time>2012-09-13T10:15:32Z</time>
      </trkpt>
      <trkpt lat="46.32697" lon="-0.48988">
        <ele>52</ele>
        <time>2012-09-13T10:15:37Z</time>
      </trkpt>
      <trkpt lat="46.32693" lon="-0.48995">
        <ele>52</ele>
        <time>2012-09-13T10:15:42Z</time>
      </trkpt>
      <trkpt lat="46.32688" lon="-0.49001">
        <ele>52</ele>
        <time>2012-09-13T10:15:47Z</time>
      </trkpt>
      <trkpt lat="46.32684" lon="-0.49005">
        <ele>52</ele>
        <time>2012-09-13T10:15:52Z</time>
      </trkpt>
      <trkpt lat="46.32678" lon="-0.49007">
        <ele>53</ele>
        <time>2012-09-13T10:15:57Z</time>
      </trkpt>
      <trkpt lat="46.32674" lon="-0.49011">
        <ele>53</ele>
        <time>2012-09-13T10:16:02Z</time>
      </trkpt>
      <trkpt lat="46.32673" lon="-0.49016">
        <ele>54</ele>
        <time>2012-09-13T10:16:07Z</time>
      </trkpt>
      <trkpt lat="46.32674" lon="-0.49023">
        <ele>57</ele>
        <time>2012-09-13T10:16:12Z</time>
      </trkpt>
      <trkpt lat="46.32678" lon="-0.49029">
        <ele>58</ele>
        <time>2012-09-13T10:16:17Z</time>
      </trkpt>
      <trkpt lat="46.32682" lon="-0.49034">
        <ele>58</ele>
        <time>2012-09-13T10:16:22Z</time>
      </trkpt>
      <trkpt lat="46.32683" lon="-0.4904">
        <ele>60</ele>
        <time>2012-09-13T10:16:27Z</time>
      </trkpt>
      <trkpt lat="46.32684" lon="-0.49047">
        <ele>57</ele>
        <time>2012-09-13T10:16:32Z</time>
      </trkpt>
      <trkpt lat="46.32682" lon="-0.49049">
        <ele>56</ele>
        <time>2012-09-13T10:16:37Z</time>
      </trkpt>
      <trkpt lat="46.32675" lon="-0.49054">
        <ele>55</ele>
        <time>2012-09-13T10:16:42Z</time>
      </trkpt>
      <trkpt lat="46.3267" lon="-0.49059">
        <ele>54</ele>
        <time>2012-09-13T10:16:47Z</time>
      </trkpt>
      <trkpt lat="46.32669" lon="-0.49061">
        <ele>54</ele>
        <time>2012-09-13T10:16:52Z</time>
      </trkpt>
      <trkpt lat="46.32668" lon="-0.49069">
        <ele>50</ele>
        <time>2012-09-13T10:16:57Z</time>
      </trkpt>
      <trkpt lat="46.32668" lon="-0.49077">
        <ele>50</ele>
        <time>2012-09-13T10:17:02Z</time>
      </trkpt>
      <trkpt lat="46.32668" lon="-0.49085">
        <ele>45</ele>
        <time>2012-09-13T10:17:07Z</time>
      </trkpt>
      <trkpt lat="46.32666" lon="-0.49094">
        <ele>44</ele>
        <time>2012-09-13T10:17:12Z</time>
      </trkpt>
      <trkpt lat="46.32664" lon="-0.49101">
        <ele>45</ele>
        <time>2012-09-13T10:17:17Z</time>
      </trkpt>
      <trkpt lat="46.32664" lon="-0.49108">
        <ele>45</ele>
        <time>2012-09-13T10:17:22Z</time>
      </trkpt>
      <trkpt lat="46.32665" lon="-0.49117">
        <ele>45</ele>
        <time>2012-09-13T10:17:27Z</time>
      </trkpt>
      <trkpt lat="46.32667" lon="-0.49124">
        <ele>46</ele>
        <time>2012-09-13T10:17:32Z</time>
      </trkpt>
      <trkpt lat="46.32666" lon="-0.49129">
        <ele>47</ele>
        <time>2012-09-13T10:17:37Z</time>
      </trkpt>
      <trkpt lat="46.32664" lon="-0.49134">
        <ele>49</ele>
        <time>2012-09-13T10:17:42Z</time>
      </trkpt>
      <trkpt lat="46.32661" lon="-0.49143">
        <ele>48</ele>
        <time>2012-09-13T10:17:47Z</time>
      </trkpt>
      <trkpt lat="46.3266" lon="-0.49148">
        <ele>49</ele>
        <time>2012-09-13T10:17:52Z</time>
      </trkpt>
      <trkpt lat="46.32658" lon="-0.49155">
        <ele>55</ele>
        <time>2012-09-13T10:17:57Z</time>
      </trkpt>
      <trkpt lat="46.32659" lon="-0.49162">
        <ele>56</ele>
        <time>2012-09-13T10:18:02Z</time>
      </trkpt>
      <trkpt lat="46.32659" lon="-0.49168">
        <ele>57</ele>
        <time>2012-09-13T10:18:07Z</time>
      </trkpt>
      <trkpt lat="46.32658" lon="-0.49178">
        <ele>55</ele>
        <time>2012-09-13T10:18:12Z</time>
      </trkpt>
      <trkpt lat="46.3266" lon="-0.49188">
        <ele>54</ele>
        <time>2012-09-13T10:18:17Z</time>
      </trkpt>
      <trkpt lat="46.32658" lon="-0.49195">
        <ele>54</ele>
        <time>2012-09-13T10:18:22Z</time>
      </trkpt>
      <trkpt lat="46.32656" lon="-0.49199">
        <ele>54</ele>
        <time>2012-09-13T10:18:27Z</time>
      </trkpt>
      <trkpt lat="46.32652" lon="-0.49202">
        <ele>54</ele>
        <time>2012-09-13T10:18:32Z</time>
      </trkpt>
      <trkpt lat="46.32645" lon="-0.49205">
        <ele>54</ele>
        <time>2012-09-13T10:18:37Z</time>
      </trkpt>
      <trkpt lat="46.32642" lon="-0.49207">
        <ele>53</ele>
        <time>2012-09-13T10:18:42Z</time>
      </trkpt>
      <trkpt lat="46.32636" lon="-0.49207">
        <ele>54</ele>
        <time>2012-09-13T10:18:47Z</time>
      </trkpt>
      <trkpt lat="46.32632" lon="-0.49208">
        <ele>54</ele>
        <time>2012-09-13T10:18:52Z</time>
      </trkpt>
      <trkpt lat="46.32627" lon="-0.49209">
        <ele>52</ele>
        <time>2012-09-13T10:18:57Z</time>
      </trkpt>
      <trkpt lat="46.32622" lon="-0.4921">
        <ele>52</ele>
        <time>2012-09-13T10:19:02Z</time>
      </trkpt>
      <trkpt lat="46.32616" lon="-0.4921">
        <ele>53</ele>
        <time>2012-09-13T10:19:07Z</time>
      </trkpt>
      <trkpt lat="46.32612" lon="-0.49209">
        <ele>54</ele>
        <time>2012-09-13T10:19:12Z</time>
      </trkpt>
      <trkpt lat="46.32606" lon="-0.49212">
        <ele>54</ele>
        <time>2012-09-13T10:19:17Z</time>
      </trkpt>
      <trkpt lat="46.32602" lon="-0.49219">
        <ele>54</ele>
        <time>2012-09-13T10:19:22Z</time>
      </trkpt>
      <trkpt lat="46.32601" lon="-0.49225">
        <ele>54</ele>
        <time>2012-09-13T10:19:27Z</time>
      </trkpt>
      <trkpt lat="46.32599" lon="-0.4923">
        <ele>54</ele>
        <time>2012-09-13T10:19:32Z</time>
      </trkpt>
      <trkpt lat="46.32594" lon="-0.49239">
        <ele>54</ele>
        <time>2012-09-13T10:19:37Z</time>
      </trkpt>
      <trkpt lat="46.32589" lon="-0.49244">
        <ele>55</ele>
        <time>2012-09-13T10:19:42Z</time>
      </trkpt>
      <trkpt lat="46.32582" lon="-0.49246">
        <ele>59</ele>
        <time>2012-09-13T10:19:47Z</time>
      </trkpt>
      <trkpt lat="46.32576" lon="-0.49246">
        <ele>61</ele>
        <time>2012-09-13T10:19:52Z</time>
      </trkpt>
      <trkpt lat="46.32571" lon="-0.49245">
        <ele>61</ele>
        <time>2012-09-13T10:19:57Z</time>
      </trkpt>
      <trkpt lat="46.32566" lon="-0.49245">
        <ele>60</ele>
        <time>2012-09-13T10:20:02Z</time>
      </trkpt>
      <trkpt lat="46.3256" lon="-0.49244">
        <ele>61</ele>
        <time>2012-09-13T10:20:07Z</time>
      </trkpt>
      <trkpt lat="46.32555" lon="-0.49244">
        <ele>61</ele>
        <time>2012-09-13T10:20:12Z</time>
      </trkpt>
      <trkpt lat="46.32549" lon="-0.49244">
        <ele>62</ele>
        <time>2012-09-13T10:20:17Z</time>
      </trkpt>
      <trkpt lat="46.32546" lon="-0.49245">
        <ele>57</ele>
        <time>2012-09-13T10:20:22Z</time>
      </trkpt>
      <trkpt lat="46.32541" lon="-0.49245">
        <ele>57</ele>
        <time>2012-09-13T10:20:27Z</time>
      </trkpt>
      <trkpt lat="46.32536" lon="-0.49246">
        <ele>56</ele>
        <time>2012-09-13T10:20:32Z</time>
      </trkpt>
      <trkpt lat="46.3253" lon="-0.49247">
        <ele>57</ele>
        <time>2012-09-13T10:20:37Z</time>
      </trkpt>
      <trkpt lat="46.32524" lon="-0.49249">
        <ele>58</ele>
        <time>2012-09-13T10:20:42Z</time>
      </trkpt>
      <trkpt lat="46.32519" lon="-0.4925">
        <ele>59</ele>
        <time>2012-09-13T10:20:47Z</time>
      </trkpt>
      <trkpt lat="46.32516" lon="-0.49252">
        <ele>57</ele>
        <time>2012-09-13T10:20:52Z</time>
      </trkpt>
      <trkpt lat="46.32512" lon="-0.49253">
        <ele>56</ele>
        <time>2012-09-13T10:20:57Z</time>
      </trkpt>
      <trkpt lat="46.32508" lon="-0.49256">
        <ele>55</ele>
        <time>2012-09-13T10:21:02Z</time>
      </trkpt>
      <trkpt lat="46.32503" lon="-0.49259">
        <ele>54</ele>
        <time>2012-09-13T10:21:07Z</time>
      </trkpt>
      <trkpt lat="46.32498" lon="-0.49261">
        <ele>55</ele>
        <time>2012-09-13T10:21:12Z</time>
      </trkpt>
      <trkpt lat="46.32494" lon="-0.49263">
        <ele>56</ele>
        <time>2012-09-13T10:21:17Z</time>
      </trkpt>
      <trkpt lat="46.32488" lon="-0.49267">
        <ele>57</ele>
        <time>2012-09-13T10:21:22Z</time>
      </trkpt>
      <trkpt lat="46.32482" lon="-0.49269">
        <ele>57</ele>
        <time>2012-09-13T10:21:27Z</time>
      </trkpt>
      <trkpt lat="46.32478" lon="-0.49272">
        <ele>57</ele>
        <time>2012-09-13T10:21:32Z</time>
      </trkpt>
      <trkpt lat="46.32474" lon="-0.49276">
        <ele>54</ele>
        <time>2012-09-13T10:21:37Z</time>
      </trkpt>
      <trkpt lat="46.32468" lon="-0.4928">
        <ele>55</ele>
        <time>2012-09-13T10:21:42Z</time>
      </trkpt>
      <trkpt lat="46.32464" lon="-0.49285">
        <ele>56</ele>
        <time>2012-09-13T10:21:47Z</time>
      </trkpt>
      <trkpt lat="46.32458" lon="-0.4929">
        <ele>58</ele>
        <time>2012-09-13T10:21:52Z</time>
      </trkpt>
      <trkpt lat="46.32453" lon="-0.49295">
        <ele>61</ele>
        <time>2012-09-13T10:21:57Z</time>
      </trkpt>
      <trkpt lat="46.32449" lon="-0.493">
        <ele>64</ele>
        <time>2012-09-13T10:22:02Z</time>
      </trkpt>
      <trkpt lat="46.32445" lon="-0.49303">
        <ele>63</ele>
        <time>2012-09-13T10:22:07Z</time>
      </trkpt>
      <trkpt lat="46.32439" lon="-0.49307">
        <ele>63</ele>
        <time>2012-09-13T10:22:12Z</time>
      </trkpt>
      <trkpt lat="46.32437" lon="-0.4931">
        <ele>61</ele>
        <time>2012-09-13T10:22:17Z</time>
      </trkpt>
      <trkpt lat="46.32433" lon="-0.49313">
        <ele>59</ele>
        <time>2012-09-13T10:22:22Z</time>
      </trkpt>
      <trkpt lat="46.3243" lon="-0.49317">
        <ele>60</ele>
        <time>2012-09-13T10:22:27Z</time>
      </trkpt>
      <trkpt lat="46.32428" lon="-0.49322">
        <ele>56</ele>
        <time>2012-09-13T10:22:32Z</time>
      </trkpt>
      <trkpt lat="46.32423" lon="-0.49326">
        <ele>56</ele>
        <time>2012-09-13T10:22:37Z</time>
      </trkpt>
      <trkpt lat="46.3242" lon="-0.49331">
        <ele>58</ele>
        <time>2012-09-13T10:22:42Z</time>
      </trkpt>
      <trkpt lat="46.32417" lon="-0.49337">
        <ele>59</ele>
        <time>2012-09-13T10:22:47Z</time>
      </trkpt>
      <trkpt lat="46.32412" lon="-0.49343">
        <ele>61</ele>
        <time>2012-09-13T10:22:52Z</time>
      </trkpt>
      <trkpt lat="46.32407" lon="-0.49351">
        <ele>61</ele>
        <time>2012-09-13T10:22:57Z</time>
      </trkpt>
      <trkpt lat="46.32403" lon="-0.49358">
        <ele>62</ele>
        <time>2012-09-13T10:23:02Z</time>
      </trkpt>
      <trkpt lat="46.32397" lon="-0.49364">
        <ele>63</ele>
        <time>2012-09-13T10:23:07Z</time>
      </trkpt>
      <trkpt lat="46.32393" lon="-0.49369">
        <ele>62</ele>
        <time>2012-09-13T10:23:12Z</time>
      </trkpt>
      <trkpt lat="46.32389" lon="-0.49375">
        <ele>61</ele>
        <time>2012-09-13T10:23:17Z</time>
      </trkpt>
      <trkpt lat="46.32385" lon="-0.49378">
        <ele>60</ele>
        <time>2012-09-13T10:23:22Z</time>
      </trkpt>
      <trkpt lat="46.3238" lon="-0.49384">
        <ele>60</ele>
        <time>2012-09-13T10:23:27Z</time>
      </trkpt>
      <trkpt lat="46.32377" lon="-0.49389">
        <ele>57</ele>
        <time>2012-09-13T10:23:32Z</time>
      </trkpt>
      <trkpt lat="46.32376" lon="-0.4939">
        <ele>58</ele>
        <time>2012-09-13T10:23:37Z</time>
      </trkpt>
      <trkpt lat="46.32372" lon="-0.49396">
        <ele>57</ele>
        <time>2012-09-13T10:23:42Z</time>
      </trkpt>
      <trkpt lat="46.32364" lon="-0.49401">
        <ele>58</ele>
        <time>2012-09-13T10:23:47Z</time>
      </trkpt>
      <trkpt lat="46.3236" lon="-0.49407">
        <ele>59</ele>
        <time>2012-09-13T10:23:52Z</time>
      </trkpt>
      <trkpt lat="46.32356" lon="-0.49412">
        <ele>58</ele>
        <time>2012-09-13T10:23:57Z</time>
      </trkpt>
      <trkpt lat="46.32351" lon="-0.49418">
        <ele>58</ele>
        <time>2012-09-13T10:24:02Z</time>
      </trkpt>
      <trkpt lat="46.32348" lon="-0.49422">
        <ele>59</ele>
        <time>2012-09-13T10:24:07Z</time>
      </trkpt>
      <trkpt lat="46.32344" lon="-0.49426">
        <ele>59</ele>
        <time>2012-09-13T10:24:12Z</time>
      </trkpt>
      <trkpt lat="46.32342" lon="-0.49431">
        <ele>57</ele>
        <time>2012-09-13T10:24:17Z</time>
      </trkpt>
      <trkpt lat="46.3234" lon="-0.49438">
        <ele>55</ele>
        <time>2012-09-13T10:24:22Z</time>
      </trkpt>
      <trkpt lat="46.32334" lon="-0.49444">
        <ele>56</ele>
        <time>2012-09-13T10:24:27Z</time>
      </trkpt>
      <trkpt lat="46.32331" lon="-0.4945">
        <ele>56</ele>
        <time>2012-09-13T10:24:32Z</time>
      </trkpt>
      <trkpt lat="46.32326" lon="-0.49454">
        <ele>56</ele>
        <time>2012-09-13T10:24:37Z</time>
      </trkpt>
      <trkpt lat="46.32323" lon="-0.49458">
        <ele>57</ele>
        <time>2012-09-13T10:24:42Z</time>
      </trkpt>
      <trkpt lat="46.32318" lon="-0.49464">
        <ele>58</ele>
        <time>2012-09-13T10:24:47Z</time>
      </trkpt>
      <trkpt lat="46.32314" lon="-0.49471">
        <ele>58</ele>
        <time>2012-09-13T10:24:52Z</time>
      </trkpt>
      <trkpt lat="46.32308" lon="-0.49475">
        <ele>56</ele>
        <time>2012-09-13T10:24:57Z</time>
      </trkpt>
      <trkpt lat="46.32302" lon="-0.4948">
        <ele>57</ele>
        <time>2012-09-13T10:25:02Z</time>
      </trkpt>
      <trkpt lat="46.32296" lon="-0.49486">
        <ele>64</ele>
        <time>2012-09-13T10:25:07Z</time>
      </trkpt>
      <trkpt lat="46.32292" lon="-0.49491">
        <ele>63</ele>
        <time>2012-09-13T10:25:12Z</time>
      </trkpt>
      <trkpt lat="46.32288" lon="-0.49495">
        <ele>62</ele>
        <time>2012-09-13T10:25:17Z</time>
      </trkpt>
      <trkpt lat="46.32283" lon="-0.49501">
        <ele>61</ele>
        <time>2012-09-13T10:25:22Z</time>
      </trkpt>
      <trkpt lat="46.32278" lon="-0.49506">
        <ele>62</ele>
        <time>2012-09-13T10:25:27Z</time>
      </trkpt>
      <trkpt lat="46.32276" lon="-0.49509">
        <ele>62</ele>
        <time>2012-09-13T10:25:32Z</time>
      </trkpt>
      <trkpt lat="46.32276" lon="-0.49513">
        <ele>62</ele>
        <time>2012-09-13T10:25:37Z</time>
      </trkpt>
      <trkpt lat="46.32275" lon="-0.49514">
        <ele>62</ele>
        <time>2012-09-13T10:25:42Z</time>
      </trkpt>
      <trkpt lat="46.32274" lon="-0.49516">
        <ele>62</ele>
        <time>2012-09-13T10:25:47Z</time>
      </trkpt>
      <trkpt lat="46.32272" lon="-0.49519">
        <ele>61</ele>
        <time>2012-09-13T10:25:52Z</time>
      </trkpt>
      <trkpt lat="46.32266" lon="-0.49524">
        <ele>60</ele>
        <time>2012-09-13T10:25:57Z</time>
      </trkpt>
      <trkpt lat="46.32261" lon="-0.4953">
        <ele>59</ele>
        <time>2012-09-13T10:26:02Z</time>
      </trkpt>
      <trkpt lat="46.32255" lon="-0.49539">
        <ele>58</ele>
        <time>2012-09-13T10:26:07Z</time>
      </trkpt>
      <trkpt lat="46.32247" lon="-0.49548">
        <ele>60</ele>
        <time>2012-09-13T10:26:12Z</time>
      </trkpt>
      <trkpt lat="46.32243" lon="-0.49555">
        <ele>59</ele>
        <time>2012-09-13T10:26:17Z</time>
      </trkpt>
      <trkpt lat="46.32244" lon="-0.49558">
        <ele>60</ele>
        <time>2012-09-13T10:26:22Z</time>
      </trkpt>
      <trkpt lat="46.32237" lon="-0.49566">
        <ele>60</ele>
        <time>2012-09-13T10:26:27Z</time>
      </trkpt>
      <trkpt lat="46.3223" lon="-0.49576">
        <ele>57</ele>
        <time>2012-09-13T10:26:32Z</time>
      </trkpt>
      <trkpt lat="46.32223" lon="-0.49583">
        <ele>57</ele>
        <time>2012-09-13T10:26:37Z</time>
      </trkpt>
      <trkpt lat="46.32219" lon="-0.49586">
        <ele>57</ele>
        <time>2012-09-13T10:26:42Z</time>
      </trkpt>
      <trkpt lat="46.32215" lon="-0.4959">
        <ele>57</ele>
        <time>2012-09-13T10:26:47Z</time>
      </trkpt>
      <trkpt lat="46.3221" lon="-0.49594">
        <ele>57</ele>
        <time>2012-09-13T10:26:52Z</time>
      </trkpt>
      <trkpt lat="46.32204" lon="-0.49596">
        <ele>59</ele>
        <time>2012-09-13T10:26:57Z</time>
      </trkpt>
      <trkpt lat="46.32201" lon="-0.49594">
        <ele>61</ele>
        <time>2012-09-13T10:27:02Z</time>
      </trkpt>
      <trkpt lat="46.32195" lon="-0.49591">
        <ele>62</ele>
        <time>2012-09-13T10:27:07Z</time>
      </trkpt>
      <trkpt lat="46.32188" lon="-0.49593">
        <ele>62</ele>
        <time>2012-09-13T10:27:12Z</time>
      </trkpt>
      <trkpt lat="46.32184" lon="-0.4959">
        <ele>61</ele>
        <time>2012-09-13T10:27:17Z</time>
      </trkpt>
      <trkpt lat="46.32184" lon="-0.49585">
        <ele>62</ele>
        <time>2012-09-13T10:27:22Z</time>
      </trkpt>
      <trkpt lat="46.3218" lon="-0.49585">
        <ele>63</ele>
        <time>2012-09-13T10:27:27Z</time>
      </trkpt>
      <trkpt lat="46.32178" lon="-0.49591">
        <ele>63</ele>
        <time>2012-09-13T10:27:32Z</time>
      </trkpt>
      <trkpt lat="46.32173" lon="-0.49597">
        <ele>64</ele>
        <time>2012-09-13T10:27:37Z</time>
      </trkpt>
      <trkpt lat="46.32171" lon="-0.49602">
        <ele>65</ele>
        <time>2012-09-13T10:27:42Z</time>
      </trkpt>
      <trkpt lat="46.32172" lon="-0.49601">
        <ele>66</ele>
        <time>2012-09-13T10:27:47Z</time>
      </trkpt>
      <trkpt lat="46.32171" lon="-0.49598">
        <ele>65</ele>
        <time>2012-09-13T10:27:52Z</time>
      </trkpt>
      <trkpt lat="46.32171" lon="-0.49595">
        <ele>64</ele>
        <time>2012-09-13T10:27:57Z</time>
      </trkpt>
      <trkpt lat="46.3217" lon="-0.49593">
        <ele>64</ele>
        <time>2012-09-13T10:28:02Z</time>
      </trkpt>
      <trkpt lat="46.32164" lon="-0.49594">
        <ele>64</ele>
        <time>2012-09-13T10:28:07Z</time>
      </trkpt>
      <trkpt lat="46.32163" lon="-0.49594">
        <ele>65</ele>
        <time>2012-09-13T10:28:12Z</time>
      </trkpt>
      <trkpt lat="46.32158" lon="-0.49596">
        <ele>65</ele>
        <time>2012-09-13T10:28:17Z</time>
      </trkpt>
      <trkpt lat="46.3216" lon="-0.496">
        <ele>63</ele>
        <time>2012-09-13T10:28:22Z</time>
      </trkpt>
      <trkpt lat="46.32164" lon="-0.49605">
        <ele>62</ele>
        <time>2012-09-13T10:28:27Z</time>
      </trkpt>
      <trkpt lat="46.32167" lon="-0.49609">
        <ele>62</ele>
        <time>2012-09-13T10:28:32Z</time>
      </trkpt>
      <trkpt lat="46.32171" lon="-0.49613">
        <ele>62</ele>
        <time>2012-09-13T10:28:37Z</time>
      </trkpt>
      <trkpt lat="46.32176" lon="-0.49617">
        <ele>62</ele>
        <time>2012-09-13T10:28:42Z</time>
      </trkpt>
      <trkpt lat="46.32181" lon="-0.4962">
        <ele>60</ele>
        <time>2012-09-13T10:28:47Z</time>
      </trkpt>
      <trkpt lat="46.32185" lon="-0.49622">
        <ele>60</ele>
        <time>2012-09-13T10:28:52Z</time>
      </trkpt>
      <trkpt lat="46.32191" lon="-0.49625">
        <ele>59</ele>
        <time>2012-09-13T10:28:57Z</time>
      </trkpt>
      <trkpt lat="46.32195" lon="-0.49629">
        <ele>60</ele>
        <time>2012-09-13T10:29:02Z</time>
      </trkpt>
      <trkpt lat="46.322" lon="-0.49632">
        <ele>59</ele>
        <time>2012-09-13T10:29:07Z</time>
      </trkpt>
      <trkpt lat="46.32206" lon="-0.49633">
        <ele>57</ele>
        <time>2012-09-13T10:29:12Z</time>
      </trkpt>
      <trkpt lat="46.32209" lon="-0.49639">
        <ele>60</ele>
        <time>2012-09-13T10:29:17Z</time>
      </trkpt>
      <trkpt lat="46.32214" lon="-0.49643">
        <ele>60</ele>
        <time>2012-09-13T10:29:22Z</time>
      </trkpt>
      <trkpt lat="46.32219" lon="-0.49648">
        <ele>59</ele>
        <time>2012-09-13T10:29:27Z</time>
      </trkpt>
      <trkpt lat="46.32225" lon="-0.4965">
        <ele>59</ele>
        <time>2012-09-13T10:29:32Z</time>
      </trkpt>
      <trkpt lat="46.32229" lon="-0.49655">
        <ele>60</ele>
        <time>2012-09-13T10:29:37Z</time>
      </trkpt>
      <trkpt lat="46.32232" lon="-0.49659">
        <ele>60</ele>
        <time>2012-09-13T10:29:42Z</time>
      </trkpt>
      <trkpt lat="46.32237" lon="-0.49662">
        <ele>61</ele>
        <time>2012-09-13T10:29:47Z</time>
      </trkpt>
      <trkpt lat="46.32242" lon="-0.49667">
        <ele>61</ele>
        <time>2012-09-13T10:29:52Z</time>
      </trkpt>
      <trkpt lat="46.32247" lon="-0.49672">
        <ele>61</ele>
        <time>2012-09-13T10:29:57Z</time>
      </trkpt>
      <trkpt lat="46.32251" lon="-0.49675">
        <ele>61</ele>
        <time>2012-09-13T10:30:02Z</time>
      </trkpt>
      <trkpt lat="46.32255" lon="-0.49677">
        <ele>60</ele>
        <time>2012-09-13T10:30:07Z</time>
      </trkpt>
      <trkpt lat="46.3226" lon="-0.49681">
        <ele>60</ele>
        <time>2012-09-13T10:30:12Z</time>
      </trkpt>
      <trkpt lat="46.32263" lon="-0.49681">
        <ele>59</ele>
        <time>2012-09-13T10:30:17Z</time>
      </trkpt>
      <trkpt lat="46.32263" lon="-0.49679">
        <ele>59</ele>
        <time>2012-09-13T10:30:22Z</time>
      </trkpt>
      <trkpt lat="46.32263" lon="-0.49672">
        <ele>59</ele>
        <time>2012-09-13T10:30:27Z</time>
      </trkpt>
      <trkpt lat="46.32261" lon="-0.49671">
        <ele>59</ele>
        <time>2012-09-13T10:30:32Z</time>
      </trkpt>
      <trkpt lat="46.32258" lon="-0.49669">
        <ele>59</ele>
        <time>2012-09-13T10:30:37Z</time>
      </trkpt>
      <trkpt lat="46.32255" lon="-0.49667">
        <ele>60</ele>
        <time>2012-09-13T10:30:42Z</time>
      </trkpt>
      <trkpt lat="46.32253" lon="-0.4967">
        <ele>58</ele>
        <time>2012-09-13T10:30:47Z</time>
      </trkpt>
      <trkpt lat="46.3225" lon="-0.49669">
        <ele>58</ele>
        <time>2012-09-13T10:30:52Z</time>
      </trkpt>
      <trkpt lat="46.32251" lon="-0.49666">
        <ele>58</ele>
        <time>2012-09-13T10:30:57Z</time>
      </trkpt>
      <trkpt lat="46.32249" lon="-0.49666">
        <ele>57</ele>
        <time>2012-09-13T10:31:02Z</time>
      </trkpt>
      <trkpt lat="46.32247" lon="-0.49672">
        <ele>57</ele>
        <time>2012-09-13T10:31:07Z</time>
      </trkpt>
      <trkpt lat="46.32247" lon="-0.49672">
        <ele>57</ele>
        <time>2012-09-13T10:31:12Z</time>
      </trkpt>
      <trkpt lat="46.32244" lon="-0.49685">
        <ele>58</ele>
        <time>2012-09-13T10:31:17Z</time>
      </trkpt>
      <trkpt lat="46.32239" lon="-0.49693">
        <ele>55</ele>
        <time>2012-09-13T10:31:22Z</time>
      </trkpt>
      <trkpt lat="46.32237" lon="-0.49703">
        <ele>55</ele>
        <time>2012-09-13T10:31:27Z</time>
      </trkpt>
      <trkpt lat="46.32236" lon="-0.49709">
        <ele>55</ele>
        <time>2012-09-13T10:31:32Z</time>
      </trkpt>
      <trkpt lat="46.32237" lon="-0.49714">
        <ele>55</ele>
        <time>2012-09-13T10:31:37Z</time>
      </trkpt>
      <trkpt lat="46.32241" lon="-0.4972">
        <ele>54</ele>
        <time>2012-09-13T10:31:42Z</time>
      </trkpt>
      <trkpt lat="46.32246" lon="-0.49723">
        <ele>54</ele>
        <time>2012-09-13T10:31:47Z</time>
      </trkpt>
      <trkpt lat="46.32251" lon="-0.49726">
        <ele>55</ele>
        <time>2012-09-13T10:31:52Z</time>
      </trkpt>
      <trkpt lat="46.32255" lon="-0.49732">
        <ele>57</ele>
        <time>2012-09-13T10:31:57Z</time>
      </trkpt>
      <trkpt lat="46.32259" lon="-0.49734">
        <ele>59</ele>
        <time>2012-09-13T10:32:02Z</time>
      </trkpt>
      <trkpt lat="46.32263" lon="-0.49737">
        <ele>58</ele>
        <time>2012-09-13T10:32:07Z</time>
      </trkpt>
      <trkpt lat="46.32268" lon="-0.49738">
        <ele>59</ele>
        <time>2012-09-13T10:32:12Z</time>
      </trkpt>
      <trkpt lat="46.32272" lon="-0.49741">
        <ele>59</ele>
        <time>2012-09-13T10:32:17Z</time>
      </trkpt>
      <trkpt lat="46.32276" lon="-0.49744">
        <ele>60</ele>
        <time>2012-09-13T10:32:22Z</time>
      </trkpt>
      <trkpt lat="46.3228" lon="-0.49747">
        <ele>60</ele>
        <time>2012-09-13T10:32:27Z</time>
      </trkpt>
      <trkpt lat="46.32287" lon="-0.4975">
        <ele>60</ele>
        <time>2012-09-13T10:32:32Z</time>
      </trkpt>
      <trkpt lat="46.32292" lon="-0.49751">
        <ele>60</ele>
        <time>2012-09-13T10:32:37Z</time>
      </trkpt>
      <trkpt lat="46.32297" lon="-0.49753">
        <ele>60</ele>
        <time>2012-09-13T10:32:42Z</time>
      </trkpt>
      <trkpt lat="46.32302" lon="-0.49755">
        <ele>61</ele>
        <time>2012-09-13T10:32:47Z</time>
      </trkpt>
      <trkpt lat="46.32306" lon="-0.49757">
        <ele>60</ele>
        <time>2012-09-13T10:32:52Z</time>
      </trkpt>
      <trkpt lat="46.32311" lon="-0.49759">
        <ele>61</ele>
        <time>2012-09-13T10:32:57Z</time>
      </trkpt>
      <trkpt lat="46.32316" lon="-0.4976">
        <ele>62</ele>
        <time>2012-09-13T10:33:02Z</time>
      </trkpt>
      <trkpt lat="46.32323" lon="-0.49761">
        <ele>62</ele>
        <time>2012-09-13T10:33:07Z</time>
      </trkpt>
      <trkpt lat="46.32328" lon="-0.49764">
        <ele>61</ele>
        <time>2012-09-13T10:33:12Z</time>
      </trkpt>
      <trkpt lat="46.32333" lon="-0.49765">
        <ele>60</ele>
        <time>2012-09-13T10:33:17Z</time>
      </trkpt>
      <trkpt lat="46.32338" lon="-0.49768">
        <ele>61</ele>
        <time>2012-09-13T10:33:22Z</time>
      </trkpt>
      <trkpt lat="46.32343" lon="-0.49769">
        <ele>62</ele>
        <time>2012-09-13T10:33:27Z</time>
      </trkpt>
      <trkpt lat="46.32349" lon="-0.49771">
        <ele>62</ele>
        <time>2012-09-13T10:33:32Z</time>
      </trkpt>
      <trkpt lat="46.32355" lon="-0.49771">
        <ele>64</ele>
        <time>2012-09-13T10:33:37Z</time>
      </trkpt>
      <trkpt lat="46.3236" lon="-0.49775">
        <ele>64</ele>
        <time>2012-09-13T10:33:42Z</time>
      </trkpt>
      <trkpt lat="46.32365" lon="-0.49774">
        <ele>65</ele>
        <time>2012-09-13T10:33:47Z</time>
      </trkpt>
      <trkpt lat="46.32371" lon="-0.49774">
        <ele>64</ele>
        <time>2012-09-13T10:33:52Z</time>
      </trkpt>
      <trkpt lat="46.32375" lon="-0.49776">
        <ele>64</ele>
        <time>2012-09-13T10:33:57Z</time>
      </trkpt>
      <trkpt lat="46.3238" lon="-0.49777">
        <ele>63</ele>
        <time>2012-09-13T10:34:02Z</time>
      </trkpt>
      <trkpt lat="46.32385" lon="-0.49779">
        <ele>64</ele>
        <time>2012-09-13T10:34:07Z</time>
      </trkpt>
      <trkpt lat="46.3239" lon="-0.4978">
        <ele>64</ele>
        <time>2012-09-13T10:34:12Z</time>
      </trkpt>
      <trkpt lat="46.32395" lon="-0.4978">
        <ele>65</ele>
        <time>2012-09-13T10:34:17Z</time>
      </trkpt>
      <trkpt lat="46.32401" lon="-0.49782">
        <ele>65</ele>
        <time>2012-09-13T10:34:22Z</time>
      </trkpt>
      <trkpt lat="46.32407" lon="-0.49783">
        <ele>65</ele>
        <time>2012-09-13T10:34:27Z</time>
      </trkpt>
      <trkpt lat="46.3241" lon="-0.49787">
        <ele>65</ele>
        <time>2012-09-13T10:34:32Z</time>
      </trkpt>
      <trkpt lat="46.32415" lon="-0.4979">
        <ele>64</ele>
        <time>2012-09-13T10:34:37Z</time>
      </trkpt>
      <trkpt lat="46.32419" lon="-0.49798">
        <ele>65</ele>
        <time>2012-09-13T10:34:42Z</time>
      </trkpt>
      <trkpt lat="46.32421" lon="-0.49805">
        <ele>65</ele>
        <time>2012-09-13T10:34:47Z</time>
      </trkpt>
      <trkpt lat="46.32422" lon="-0.49813">
        <ele>65</ele>
        <time>2012-09-13T10:34:52Z</time>
      </trkpt>
      <trkpt lat="46.32425" lon="-0.49819">
        <ele>65</ele>
        <time>2012-09-13T10:34:57Z</time>
      </trkpt>
      <trkpt lat="46.32427" lon="-0.49827">
        <ele>66</ele>
        <time>2012-09-13T10:35:02Z</time>
      </trkpt>
      <trkpt lat="46.3243" lon="-0.49834">
        <ele>66</ele>
        <time>2012-09-13T10:35:07Z</time>
      </trkpt>
      <trkpt lat="46.32432" lon="-0.49841">
        <ele>66</ele>
        <time>2012-09-13T10:35:12Z</time>
      </trkpt>
      <trkpt lat="46.32436" lon="-0.49847">
        <ele>65</ele>
        <time>2012-09-13T10:35:17Z</time>
      </trkpt>
      <trkpt lat="46.32436" lon="-0.49856">
        <ele>64</ele>
        <time>2012-09-13T10:35:22Z</time>
      </trkpt>
      <trkpt lat="46.32438" lon="-0.49863">
        <ele>64</ele>
        <time>2012-09-13T10:35:27Z</time>
      </trkpt>
      <trkpt lat="46.32438" lon="-0.49872">
        <ele>63</ele>
        <time>2012-09-13T10:35:32Z</time>
      </trkpt>
      <trkpt lat="46.3244" lon="-0.49879">
        <ele>63</ele>
        <time>2012-09-13T10:35:37Z</time>
      </trkpt>
      <trkpt lat="46.32443" lon="-0.49886">
        <ele>64</ele>
        <time>2012-09-13T10:35:42Z</time>
      </trkpt>
      <trkpt lat="46.32445" lon="-0.49893">
        <ele>65</ele>
        <time>2012-09-13T10:35:47Z</time>
      </trkpt>
      <trkpt lat="46.32447" lon="-0.49901">
        <ele>65</ele>
        <time>2012-09-13T10:35:52Z</time>
      </trkpt>
      <trkpt lat="46.3245" lon="-0.49909">
        <ele>64</ele>
        <time>2012-09-13T10:35:57Z</time>
      </trkpt>
      <trkpt lat="46.32452" lon="-0.49916">
        <ele>65</ele>
        <time>2012-09-13T10:36:02Z</time>
      </trkpt>
      <trkpt lat="46.32455" lon="-0.49922">
        <ele>65</ele>
        <time>2012-09-13T10:36:07Z</time>
      </trkpt>
      <trkpt lat="46.32457" lon="-0.49929">
        <ele>66</ele>
        <time>2012-09-13T10:36:12Z</time>
      </trkpt>
      <trkpt lat="46.32461" lon="-0.49935">
        <ele>66</ele>
        <time>2012-09-13T10:36:17Z</time>
      </trkpt>
      <trkpt lat="46.32464" lon="-0.49941">
        <ele>66</ele>
        <time>2012-09-13T10:36:22Z</time>
      </trkpt>
      <trkpt lat="46.32465" lon="-0.49947">
        <ele>67</ele>
        <time>2012-09-13T10:36:27Z</time>
      </trkpt>
      <trkpt lat="46.32465" lon="-0.49959">
        <ele>68</ele>
        <time>2012-09-13T10:36:32Z</time>
      </trkpt>
      <trkpt lat="46.32467" lon="-0.49966">
        <ele>67</ele>
        <time>2012-09-13T10:36:37Z</time>
      </trkpt>
      <trkpt lat="46.3247" lon="-0.49973">
        <ele>66</ele>
        <time>2012-09-13T10:36:42Z</time>
      </trkpt>
      <trkpt lat="46.32474" lon="-0.49978">
        <ele>65</ele>
        <time>2012-09-13T10:36:47Z</time>
      </trkpt>
      <trkpt lat="46.32475" lon="-0.49987">
        <ele>65</ele>
        <time>2012-09-13T10:36:52Z</time>
      </trkpt>
      <trkpt lat="46.32473" lon="-0.49996">
        <ele>64</ele>
        <time>2012-09-13T10:36:57Z</time>
      </trkpt>
      <trkpt lat="46.32475" lon="-0.50004">
        <ele>63</ele>
        <time>2012-09-13T10:37:02Z</time>
      </trkpt>
      <trkpt lat="46.32476" lon="-0.50012">
        <ele>62</ele>
        <time>2012-09-13T10:37:07Z</time>
      </trkpt>
      <trkpt lat="46.3248" lon="-0.50018">
        <ele>62</ele>
        <time>2012-09-13T10:37:12Z</time>
      </trkpt>
      <trkpt lat="46.32482" lon="-0.50025">
        <ele>63</ele>
        <time>2012-09-13T10:37:17Z</time>
      </trkpt>
      <trkpt lat="46.32485" lon="-0.50031">
        <ele>62</ele>
        <time>2012-09-13T10:37:22Z</time>
      </trkpt>
      <trkpt lat="46.32486" lon="-0.50038">
        <ele>64</ele>
        <time>2012-09-13T10:37:27Z</time>
      </trkpt>
      <trkpt lat="46.32488" lon="-0.50042">
        <ele>63</ele>
        <time>2012-09-13T10:37:32Z</time>
      </trkpt>
      <trkpt lat="46.3249" lon="-0.50053">
        <ele>63</ele>
        <time>2012-09-13T10:37:37Z</time>
      </trkpt>
      <trkpt lat="46.32493" lon="-0.5006">
        <ele>63</ele>
        <time>2012-09-13T10:37:42Z</time>
      </trkpt>
      <trkpt lat="46.32495" lon="-0.50067">
        <ele>64</ele>
        <time>2012-09-13T10:37:47Z</time>
      </trkpt>
      <trkpt lat="46.32497" lon="-0.50072">
        <ele>64</ele>
        <time>2012-09-13T10:37:52Z</time>
      </trkpt>
      <trkpt lat="46.32501" lon="-0.50079">
        <ele>65</ele>
        <time>2012-09-13T10:37:57Z</time>
      </trkpt>
      <trkpt lat="46.32503" lon="-0.50086">
        <ele>64</ele>
        <time>2012-09-13T10:38:02Z</time>
      </trkpt>
      <trkpt lat="46.32504" lon="-0.50094">
        <ele>64</ele>
        <time>2012-09-13T10:38:07Z</time>
      </trkpt>
      <trkpt lat="46.32506" lon="-0.50099">
        <ele>64</ele>
        <time>2012-09-13T10:38:12Z</time>
      </trkpt>
      <trkpt lat="46.32505" lon="-0.50108">
        <ele>61</ele>
        <time>2012-09-13T10:38:17Z</time>
      </trkpt>
      <trkpt lat="46.32505" lon="-0.50118">
        <ele>60</ele>
        <time>2012-09-13T10:38:22Z</time>
      </trkpt>
      <trkpt lat="46.32508" lon="-0.50124">
        <ele>60</ele>
        <time>2012-09-13T10:38:27Z</time>
      </trkpt>
      <trkpt lat="46.32508" lon="-0.50129">
        <ele>60</ele>
        <time>2012-09-13T10:38:32Z</time>
      </trkpt>
      <trkpt lat="46.32512" lon="-0.50137">
        <ele>61</ele>
        <time>2012-09-13T10:38:37Z</time>
      </trkpt>
      <trkpt lat="46.32515" lon="-0.50146">
        <ele>63</ele>
        <time>2012-09-13T10:38:42Z</time>
      </trkpt>
      <trkpt lat="46.32517" lon="-0.50155">
        <ele>63</ele>
        <time>2012-09-13T10:38:47Z</time>
      </trkpt>
      <trkpt lat="46.32519" lon="-0.50162">
        <ele>62</ele>
        <time>2012-09-13T10:38:52Z</time>
      </trkpt>
      <trkpt lat="46.3252" lon="-0.50169">
        <ele>61</ele>
        <time>2012-09-13T10:38:57Z</time>
      </trkpt>
      <trkpt lat="46.32523" lon="-0.50176">
        <ele>61</ele>
        <time>2012-09-13T10:39:02Z</time>
      </trkpt>
      <trkpt lat="46.32525" lon="-0.50184">
        <ele>62</ele>
        <time>2012-09-13T10:39:07Z</time>
      </trkpt>
      <trkpt lat="46.32527" lon="-0.50191">
        <ele>63</ele>
        <time>2012-09-13T10:39:12Z</time>
      </trkpt>
      <trkpt lat="46.32531" lon="-0.50198">
        <ele>63</ele>
        <time>2012-09-13T10:39:17Z</time>
      </trkpt>
      <trkpt lat="46.32532" lon="-0.50206">
        <ele>62</ele>
        <time>2012-09-13T10:39:22Z</time>
      </trkpt>
      <trkpt lat="46.32535" lon="-0.50213">
        <ele>61</ele>
        <time>2012-09-13T10:39:27Z</time>
      </trkpt>
      <trkpt lat="46.32536" lon="-0.5022">
        <ele>61</ele>
        <time>2012-09-13T10:39:32Z</time>
      </trkpt>
      <trkpt lat="46.32538" lon="-0.50228">
        <ele>61</ele>
        <time>2012-09-13T10:39:37Z</time>
      </trkpt>
      <trkpt lat="46.3254" lon="-0.50234">
        <ele>62</ele>
        <time>2012-09-13T10:39:42Z</time>
      </trkpt>
      <trkpt lat="46.32542" lon="-0.50241">
        <ele>61</ele>
        <time>2012-09-13T10:39:47Z</time>
      </trkpt>
      <trkpt lat="46.32545" lon="-0.50248">
        <ele>60</ele>
        <time>2012-09-13T10:39:52Z</time>
      </trkpt>
      <trkpt lat="46.32546" lon="-0.50257">
        <ele>61</ele>
        <time>2012-09-13T10:39:57Z</time>
      </trkpt>
      <trkpt lat="46.32548" lon="-0.50265">
        <ele>60</ele>
        <time>2012-09-13T10:40:02Z</time>
      </trkpt>
      <trkpt lat="46.32549" lon="-0.50272">
        <ele>60</ele>
        <time>2012-09-13T10:40:07Z</time>
      </trkpt>
      <trkpt lat="46.3255" lon="-0.5028">
        <ele>60</ele>
        <time>2012-09-13T10:40:12Z</time>
      </trkpt>
      <trkpt lat="46.32553" lon="-0.50286">
        <ele>62</ele>
        <time>2012-09-13T10:40:17Z</time>
      </trkpt>
      <trkpt lat="46.32555" lon="-0.50294">
        <ele>61</ele>
        <time>2012-09-13T10:40:22Z</time>
      </trkpt>
      <trkpt lat="46.32556" lon="-0.50299">
        <ele>61</ele>
        <time>2012-09-13T10:40:27Z</time>
      </trkpt>
      <trkpt lat="46.32559" lon="-0.50306">
        <ele>61</ele>
        <time>2012-09-13T10:40:32Z</time>
      </trkpt>
      <trkpt lat="46.3256" lon="-0.50314">
        <ele>60</ele>
        <time>2012-09-13T10:40:37Z</time>
      </trkpt>
      <trkpt lat="46.32562" lon="-0.5032">
        <ele>59</ele>
        <time>2012-09-13T10:40:42Z</time>
      </trkpt>
      <trkpt lat="46.32564" lon="-0.50325">
        <ele>59</ele>
        <time>2012-09-13T10:40:47Z</time>
      </trkpt>
      <trkpt lat="46.32566" lon="-0.50332">
        <ele>59</ele>
        <time>2012-09-13T10:40:52Z</time>
      </trkpt>
      <trkpt lat="46.32568" lon="-0.50339">
        <ele>59</ele>
        <time>2012-09-13T10:40:57Z</time>
      </trkpt>
      <trkpt lat="46.32568" lon="-0.50345">
        <ele>59</ele>
        <time>2012-09-13T10:41:02Z</time>
      </trkpt>
      <trkpt lat="46.32569" lon="-0.50353">
        <ele>57</ele>
        <time>2012-09-13T10:41:07Z</time>
      </trkpt>
      <trkpt lat="46.3257" lon="-0.50359">
        <ele>58</ele>
        <time>2012-09-13T10:41:12Z</time>
      </trkpt>
      <trkpt lat="46.32572" lon="-0.50366">
        <ele>59</ele>
        <time>2012-09-13T10:41:17Z</time>
      </trkpt>
      <trkpt lat="46.32572" lon="-0.50371">
        <ele>59</ele>
        <time>2012-09-13T10:41:22Z</time>
      </trkpt>
      <trkpt lat="46.32575" lon="-0.50377">
        <ele>60</ele>
        <time>2012-09-13T10:41:27Z</time>
      </trkpt>
      <trkpt lat="46.32578" lon="-0.50384">
        <ele>60</ele>
        <time>2012-09-13T10:41:32Z</time>
      </trkpt>
      <trkpt lat="46.32582" lon="-0.50391">
        <ele>61</ele>
        <time>2012-09-13T10:41:37Z</time>
      </trkpt>
      <trkpt lat="46.32584" lon="-0.50398">
        <ele>60</ele>
        <time>2012-09-13T10:41:42Z</time>
      </trkpt>
      <trkpt lat="46.32587" lon="-0.50404">
        <ele>60</ele>
        <time>2012-09-13T10:41:47Z</time>
      </trkpt>
      <trkpt lat="46.32589" lon="-0.50411">
        <ele>60</ele>
        <time>2012-09-13T10:41:52Z</time>
      </trkpt>
      <trkpt lat="46.32592" lon="-0.50418">
        <ele>60</ele>
        <time>2012-09-13T10:41:57Z</time>
      </trkpt>
      <trkpt lat="46.32593" lon="-0.50426">
        <ele>60</ele>
        <time>2012-09-13T10:42:02Z</time>
      </trkpt>
      <trkpt lat="46.32596" lon="-0.50431">
        <ele>60</ele>
        <time>2012-09-13T10:42:07Z</time>
      </trkpt>
      <trkpt lat="46.32599" lon="-0.50437">
        <ele>60</ele>
        <time>2012-09-13T10:42:12Z</time>
      </trkpt>
      <trkpt lat="46.32601" lon="-0.50444">
        <ele>60</ele>
        <time>2012-09-13T10:42:17Z</time>
      </trkpt>
      <trkpt lat="46.32602" lon="-0.50452">
        <ele>60</ele>
        <time>2012-09-13T10:42:22Z</time>
      </trkpt>
      <trkpt lat="46.32601" lon="-0.50461">
        <ele>59</ele>
        <time>2012-09-13T10:42:27Z</time>
      </trkpt>
      <trkpt lat="46.32603" lon="-0.50468">
        <ele>59</ele>
        <time>2012-09-13T10:42:32Z</time>
      </trkpt>
      <trkpt lat="46.32607" lon="-0.50474">
        <ele>59</ele>
        <time>2012-09-13T10:42:37Z</time>
      </trkpt>
      <trkpt lat="46.32611" lon="-0.5048">
        <ele>60</ele>
        <time>2012-09-13T10:42:42Z</time>
      </trkpt>
      <trkpt lat="46.32613" lon="-0.50487">
        <ele>60</ele>
        <time>2012-09-13T10:42:47Z</time>
      </trkpt>
      <trkpt lat="46.32615" lon="-0.50493">
        <ele>60</ele>
        <time>2012-09-13T10:42:52Z</time>
      </trkpt>
      <trkpt lat="46.32617" lon="-0.50499">
        <ele>61</ele>
        <time>2012-09-13T10:42:57Z</time>
      </trkpt>
      <trkpt lat="46.32619" lon="-0.50508">
        <ele>60</ele>
        <time>2012-09-13T10:43:02Z</time>
      </trkpt>
      <trkpt lat="46.32623" lon="-0.50512">
        <ele>60</ele>
        <time>2012-09-13T10:43:07Z</time>
      </trkpt>
      <trkpt lat="46.32627" lon="-0.50512">
        <ele>61</ele>
        <time>2012-09-13T10:43:12Z</time>
      </trkpt>
      <trkpt lat="46.32631" lon="-0.5051">
        <ele>61</ele>
        <time>2012-09-13T10:43:17Z</time>
      </trkpt>
      <trkpt lat="46.32636" lon="-0.50514">
        <ele>60</ele>
        <time>2012-09-13T10:43:22Z</time>
      </trkpt>
      <trkpt lat="46.32642" lon="-0.50518">
        <ele>60</ele>
        <time>2012-09-13T10:43:27Z</time>
      </trkpt>
      <trkpt lat="46.32648" lon="-0.50518">
        <ele>58</ele>
        <time>2012-09-13T10:43:32Z</time>
      </trkpt>
      <trkpt lat="46.32653" lon="-0.50519">
        <ele>57</ele>
        <time>2012-09-13T10:43:37Z</time>
      </trkpt>
      <trkpt lat="46.32659" lon="-0.50519">
        <ele>57</ele>
        <time>2012-09-13T10:43:42Z</time>
      </trkpt>
      <trkpt lat="46.32665" lon="-0.50519">
        <ele>59</ele>
        <time>2012-09-13T10:43:47Z</time>
      </trkpt>
      <trkpt lat="46.32669" lon="-0.50521">
        <ele>57</ele>
        <time>2012-09-13T10:43:52Z</time>
      </trkpt>
      <trkpt lat="46.32674" lon="-0.50521">
        <ele>57</ele>
        <time>2012-09-13T10:43:57Z</time>
      </trkpt>
      <trkpt lat="46.3268" lon="-0.50522">
        <ele>57</ele>
        <time>2012-09-13T10:44:02Z</time>
      </trkpt>
      <trkpt lat="46.32686" lon="-0.50522">
        <ele>58</ele>
        <time>2012-09-13T10:44:07Z</time>
      </trkpt>
      <trkpt lat="46.3269" lon="-0.5052">
        <ele>58</ele>
        <time>2012-09-13T10:44:12Z</time>
      </trkpt>
      <trkpt lat="46.32696" lon="-0.5052">
        <ele>58</ele>
        <time>2012-09-13T10:44:17Z</time>
      </trkpt>
      <trkpt lat="46.32701" lon="-0.50523">
        <ele>57</ele>
        <time>2012-09-13T10:44:22Z</time>
      </trkpt>
      <trkpt lat="46.32707" lon="-0.50524">
        <ele>54</ele>
        <time>2012-09-13T10:44:27Z</time>
      </trkpt>
      <trkpt lat="46.32712" lon="-0.50525">
        <ele>54</ele>
        <time>2012-09-13T10:44:32Z</time>
      </trkpt>
      <trkpt lat="46.32714" lon="-0.50526">
        <ele>55</ele>
        <time>2012-09-13T10:44:37Z</time>
      </trkpt>
      <trkpt lat="46.32714" lon="-0.50526">
        <ele>55</ele>
        <time>2012-09-13T10:44:42Z</time>
      </trkpt>
      <trkpt lat="46.32714" lon="-0.50526">
        <ele>55</ele>
        <time>2012-09-13T10:44:47Z</time>
      </trkpt>
      <trkpt lat="46.32716" lon="-0.50528">
        <ele>54</ele>
        <time>2012-09-13T10:44:52Z</time>
      </trkpt>
      <trkpt lat="46.32723" lon="-0.50527">
        <ele>54</ele>
        <time>2012-09-13T10:44:57Z</time>
      </trkpt>
      <trkpt lat="46.3273" lon="-0.50527">
        <ele>54</ele>
        <time>2012-09-13T10:45:02Z</time>
      </trkpt>
      <trkpt lat="46.32734" lon="-0.50527">
        <ele>56</ele>
        <time>2012-09-13T10:45:07Z</time>
      </trkpt>
      <trkpt lat="46.32738" lon="-0.50526">
        <ele>56</ele>
        <time>2012-09-13T10:45:12Z</time>
      </trkpt>
      <trkpt lat="46.32745" lon="-0.50528">
        <ele>57</ele>
        <time>2012-09-13T10:45:17Z</time>
      </trkpt>
      <trkpt lat="46.32746" lon="-0.50531">
        <ele>58</ele>
        <time>2012-09-13T10:45:22Z</time>
      </trkpt>
      <trkpt lat="46.32753" lon="-0.50532">
        <ele>60</ele>
        <time>2012-09-13T10:45:27Z</time>
      </trkpt>
      <trkpt lat="46.3276" lon="-0.50531">
        <ele>61</ele>
        <time>2012-09-13T10:45:32Z</time>
      </trkpt>
      <trkpt lat="46.32768" lon="-0.50529">
        <ele>62</ele>
        <time>2012-09-13T10:45:37Z</time>
      </trkpt>
      <trkpt lat="46.32772" lon="-0.50531">
        <ele>63</ele>
        <time>2012-09-13T10:45:42Z</time>
      </trkpt>
      <trkpt lat="46.32775" lon="-0.50531">
        <ele>65</ele>
        <time>2012-09-13T10:45:47Z</time>
      </trkpt>
      <trkpt lat="46.32781" lon="-0.50532">
        <ele>64</ele>
        <time>2012-09-13T10:45:52Z</time>
      </trkpt>
      <trkpt lat="46.32785" lon="-0.50533">
        <ele>65</ele>
        <time>2012-09-13T10:45:57Z</time>
      </trkpt>
      <trkpt lat="46.3279" lon="-0.50532">
        <ele>68</ele>
        <time>2012-09-13T10:46:02Z</time>
      </trkpt>
      <trkpt lat="46.32796" lon="-0.50532">
        <ele>66</ele>
        <time>2012-09-13T10:46:07Z</time>
      </trkpt>
      <trkpt lat="46.32802" lon="-0.50533">
        <ele>65</ele>
        <time>2012-09-13T10:46:12Z</time>
      </trkpt>
      <trkpt lat="46.32807" lon="-0.50533">
        <ele>66</ele>
        <time>2012-09-13T10:46:17Z</time>
      </trkpt>
      <trkpt lat="46.32812" lon="-0.50532">
        <ele>67</ele>
        <time>2012-09-13T10:46:22Z</time>
      </trkpt>
      <trkpt lat="46.32819" lon="-0.50534">
        <ele>66</ele>
        <time>2012-09-13T10:46:27Z</time>
      </trkpt>
      <trkpt lat="46.32825" lon="-0.50534">
        <ele>68</ele>
        <time>2012-09-13T10:46:32Z</time>
      </trkpt>
      <trkpt lat="46.32829" lon="-0.50535">
        <ele>67</ele>
        <time>2012-09-13T10:46:37Z</time>
      </trkpt>
      <trkpt lat="46.32834" lon="-0.50534">
        <ele>68</ele>
        <time>2012-09-13T10:46:42Z</time>
      </trkpt>
      <trkpt lat="46.32842" lon="-0.50534">
        <ele>70</ele>
        <time>2012-09-13T10:46:47Z</time>
      </trkpt>
      <trkpt lat="46.32847" lon="-0.50533">
        <ele>70</ele>
        <time>2012-09-13T10:46:52Z</time>
      </trkpt>
      <trkpt lat="46.32854" lon="-0.50531">
        <ele>68</ele>
        <time>2012-09-13T10:46:57Z</time>
      </trkpt>
      <trkpt lat="46.32861" lon="-0.50531">
        <ele>66</ele>
        <time>2012-09-13T10:47:02Z</time>
      </trkpt>
      <trkpt lat="46.32865" lon="-0.5053">
        <ele>69</ele>
        <time>2012-09-13T10:47:07Z</time>
      </trkpt>
      <trkpt lat="46.32869" lon="-0.5053">
        <ele>71</ele>
        <time>2012-09-13T10:47:12Z</time>
      </trkpt>
      <trkpt lat="46.32873" lon="-0.50532">
        <ele>69</ele>
        <time>2012-09-13T10:47:17Z</time>
      </trkpt>
      <trkpt lat="46.32877" lon="-0.50532">
        <ele>66</ele>
        <time>2012-09-13T10:47:22Z</time>
      </trkpt>
      <trkpt lat="46.32878" lon="-0.50534">
        <ele>65</ele>
        <time>2012-09-13T10:47:27Z</time>
      </trkpt>
      <trkpt lat="46.32881" lon="-0.50534">
        <ele>66</ele>
        <time>2012-09-13T10:47:32Z</time>
      </trkpt>
      <trkpt lat="46.32884" lon="-0.5053">
        <ele>64</ele>
        <time>2012-09-13T10:47:37Z</time>
      </trkpt>
      <trkpt lat="46.3289" lon="-0.50528">
        <ele>63</ele>
        <time>2012-09-13T10:47:42Z</time>
      </trkpt>
      <trkpt lat="46.32894" lon="-0.5053">
        <ele>61</ele>
        <time>2012-09-13T10:47:47Z</time>
      </trkpt>
      <trkpt lat="46.329" lon="-0.5053">
        <ele>62</ele>
        <time>2012-09-13T10:47:52Z</time>
      </trkpt>
      <trkpt lat="46.32905" lon="-0.50529">
        <ele>63</ele>
        <time>2012-09-13T10:47:57Z</time>
      </trkpt>
      <trkpt lat="46.3291" lon="-0.50526">
        <ele>64</ele>
        <time>2012-09-13T10:48:02Z</time>
      </trkpt>
      <trkpt lat="46.32916" lon="-0.50529">
        <ele>62</ele>
        <time>2012-09-13T10:48:07Z</time>
      </trkpt>
      <trkpt lat="46.32922" lon="-0.50531">
        <ele>63</ele>
        <time>2012-09-13T10:48:12Z</time>
      </trkpt>
      <trkpt lat="46.32928" lon="-0.5053">
        <ele>63</ele>
        <time>2012-09-13T10:48:17Z</time>
      </trkpt>
      <trkpt lat="46.32931" lon="-0.50531">
        <ele>64</ele>
        <time>2012-09-13T10:48:22Z</time>
      </trkpt>
      <trkpt lat="46.32933" lon="-0.50531">
        <ele>64</ele>
        <time>2012-09-13T10:48:27Z</time>
      </trkpt>
      <trkpt lat="46.3294" lon="-0.5053">
        <ele>64</ele>
        <time>2012-09-13T10:48:32Z</time>
      </trkpt>
      <trkpt lat="46.32946" lon="-0.50533">
        <ele>62</ele>
        <time>2012-09-13T10:48:37Z</time>
      </trkpt>
      <trkpt lat="46.32952" lon="-0.50533">
        <ele>64</ele>
        <time>2012-09-13T10:48:42Z</time>
      </trkpt>
      <trkpt lat="46.32954" lon="-0.50534">
        <ele>66</ele>
        <time>2012-09-13T10:48:47Z</time>
      </trkpt>
      <trkpt lat="46.3296" lon="-0.50535">
        <ele>67</ele>
        <time>2012-09-13T10:48:52Z</time>
      </trkpt>
      <trkpt lat="46.32966" lon="-0.50535">
        <ele>67</ele>
        <time>2012-09-13T10:48:57Z</time>
      </trkpt>
      <trkpt lat="46.32967" lon="-0.50534">
        <ele>67</ele>
        <time>2012-09-13T10:49:02Z</time>
      </trkpt>
      <trkpt lat="46.32973" lon="-0.50536">
        <ele>66</ele>
        <time>2012-09-13T10:49:07Z</time>
      </trkpt>
      <trkpt lat="46.32981" lon="-0.50538">
        <ele>65</ele>
        <time>2012-09-13T10:49:12Z</time>
      </trkpt>
      <trkpt lat="46.32987" lon="-0.5054">
        <ele>65</ele>
        <time>2012-09-13T10:49:17Z</time>
      </trkpt>
      <trkpt lat="46.32993" lon="-0.50544">
        <ele>63</ele>
        <time>2012-09-13T10:49:22Z</time>
      </trkpt>
      <trkpt lat="46.32996" lon="-0.50545">
        <ele>63</ele>
        <time>2012-09-13T10:49:27Z</time>
      </trkpt>
      <trkpt lat="46.32999" lon="-0.50543">
        <ele>66</ele>
        <time>2012-09-13T10:49:32Z</time>
      </trkpt>
      <trkpt lat="46.33003" lon="-0.50539">
        <ele>67</ele>
        <time>2012-09-13T10:49:37Z</time>
      </trkpt>
      <trkpt lat="46.33008" lon="-0.5054">
        <ele>68</ele>
        <time>2012-09-13T10:49:42Z</time>
      </trkpt>
      <trkpt lat="46.3301" lon="-0.5054">
        <ele>68</ele>
        <time>2012-09-13T10:49:47Z</time>
      </trkpt>
      <trkpt lat="46.33017" lon="-0.5054">
        <ele>67</ele>
        <time>2012-09-13T10:49:52Z</time>
      </trkpt>
      <trkpt lat="46.33024" lon="-0.5054">
        <ele>67</ele>
        <time>2012-09-13T10:49:57Z</time>
      </trkpt>
      <trkpt lat="46.33031" lon="-0.50542">
        <ele>65</ele>
        <time>2012-09-13T10:50:02Z</time>
      </trkpt>
      <trkpt lat="46.33037" lon="-0.50542">
        <ele>64</ele>
        <time>2012-09-13T10:50:07Z</time>
      </trkpt>
      <trkpt lat="46.33041" lon="-0.50542">
        <ele>65</ele>
        <time>2012-09-13T10:50:12Z</time>
      </trkpt>
      <trkpt lat="46.33046" lon="-0.50542">
        <ele>65</ele>
        <time>2012-09-13T10:50:17Z</time>
      </trkpt>
      <trkpt lat="46.33053" lon="-0.50544">
        <ele>64</ele>
        <time>2012-09-13T10:50:22Z</time>
      </trkpt>
      <trkpt lat="46.33058" lon="-0.50545">
        <ele>64</ele>
        <time>2012-09-13T10:50:27Z</time>
      </trkpt>
      <trkpt lat="46.33064" lon="-0.50543">
        <ele>66</ele>
        <time>2012-09-13T10:50:32Z</time>
      </trkpt>
      <trkpt lat="46.3307" lon="-0.50538">
        <ele>68</ele>
        <time>2012-09-13T10:50:37Z</time>
      </trkpt>
      <trkpt lat="46.33076" lon="-0.50543">
        <ele>67</ele>
        <time>2012-09-13T10:50:42Z</time>
      </trkpt>
      <trkpt lat="46.33083" lon="-0.50543">
        <ele>65</ele>
        <time>2012-09-13T10:50:47Z</time>
      </trkpt>
      <trkpt lat="46.33087" lon="-0.50546">
        <ele>64</ele>
        <time>2012-09-13T10:50:52Z</time>
      </trkpt>
      <trkpt lat="46.33094" lon="-0.50546">
        <ele>64</ele>
        <time>2012-09-13T10:50:57Z</time>
      </trkpt>
      <trkpt lat="46.331" lon="-0.50548">
        <ele>61</ele>
        <time>2012-09-13T10:51:02Z</time>
      </trkpt>
      <trkpt lat="46.33102" lon="-0.50555">
        <ele>58</ele>
        <time>2012-09-13T10:51:07Z</time>
      </trkpt>
      <trkpt lat="46.33106" lon="-0.50554">
        <ele>58</ele>
        <time>2012-09-13T10:51:12Z</time>
      </trkpt>
      <trkpt lat="46.33112" lon="-0.50554">
        <ele>60</ele>
        <time>2012-09-13T10:51:17Z</time>
      </trkpt>
      <trkpt lat="46.33117" lon="-0.50554">
        <ele>61</ele>
        <time>2012-09-13T10:51:22Z</time>
      </trkpt>
      <trkpt lat="46.33122" lon="-0.50553">
        <ele>61</ele>
        <time>2012-09-13T10:51:27Z</time>
      </trkpt>
      <trkpt lat="46.33126" lon="-0.50553">
        <ele>63</ele>
        <time>2012-09-13T10:51:32Z</time>
      </trkpt>
      <trkpt lat="46.33131" lon="-0.5055">
        <ele>64</ele>
        <time>2012-09-13T10:51:37Z</time>
      </trkpt>
      <trkpt lat="46.33138" lon="-0.50549">
        <ele>65</ele>
        <time>2012-09-13T10:51:42Z</time>
      </trkpt>
      <trkpt lat="46.33142" lon="-0.5055">
        <ele>66</ele>
        <time>2012-09-13T10:51:47Z</time>
      </trkpt>
      <trkpt lat="46.33145" lon="-0.50553">
        <ele>67</ele>
        <time>2012-09-13T10:51:52Z</time>
      </trkpt>
      <trkpt lat="46.33147" lon="-0.50555">
        <ele>68</ele>
        <time>2012-09-13T10:51:57Z</time>
      </trkpt>
      <trkpt lat="46.33149" lon="-0.50557">
        <ele>69</ele>
        <time>2012-09-13T10:52:02Z</time>
      </trkpt>
      <trkpt lat="46.33155" lon="-0.5056">
        <ele>71</ele>
        <time>2012-09-13T10:52:07Z</time>
      </trkpt>
      <trkpt lat="46.3316" lon="-0.5056">
        <ele>72</ele>
        <time>2012-09-13T10:52:12Z</time>
      </trkpt>
      <trkpt lat="46.33166" lon="-0.50561">
        <ele>73</ele>
        <time>2012-09-13T10:52:17Z</time>
      </trkpt>
      <trkpt lat="46.33171" lon="-0.50561">
        <ele>75</ele>
        <time>2012-09-13T10:52:22Z</time>
      </trkpt>
      <trkpt lat="46.33174" lon="-0.50562">
        <ele>75</ele>
        <time>2012-09-13T10:52:27Z</time>
      </trkpt>
      <trkpt lat="46.33177" lon="-0.50563">
        <ele>76</ele>
        <time>2012-09-13T10:52:32Z</time>
      </trkpt>
      <trkpt lat="46.33178" lon="-0.50565">
        <ele>76</ele>
        <time>2012-09-13T10:52:37Z</time>
      </trkpt>
      <trkpt lat="46.33178" lon="-0.50566">
        <ele>76</ele>
        <time>2012-09-13T10:52:42Z</time>
      </trkpt>
      <trkpt lat="46.33184" lon="-0.50567">
        <ele>78</ele>
        <time>2012-09-13T10:52:47Z</time>
      </trkpt>
      <trkpt lat="46.33197" lon="-0.50573">
        <ele>79</ele>
        <time>2012-09-13T10:52:52Z</time>
      </trkpt>
      <trkpt lat="46.33204" lon="-0.50577">
        <ele>85</ele>
        <time>2012-09-13T10:52:57Z</time>
      </trkpt>
      <trkpt lat="46.33207" lon="-0.50579">
        <ele>86</ele>
        <time>2012-09-13T10:53:02Z</time>
      </trkpt>
      <trkpt lat="46.33208" lon="-0.50581">
        <ele>87</ele>
        <time>2012-09-13T10:53:07Z</time>
      </trkpt>
      <trkpt lat="46.33209" lon="-0.50582">
        <ele>87</ele>
        <time>2012-09-13T10:53:12Z</time>
      </trkpt>
      <trkpt lat="46.33209" lon="-0.50582">
        <ele>87</ele>
        <time>2012-09-13T10:53:17Z</time>
      </trkpt>
      <trkpt lat="46.33223" lon="-0.50585">
        <ele>83</ele>
        <time>2012-09-13T10:53:22Z</time>
      </trkpt>
      <trkpt lat="46.3323" lon="-0.50586">
        <ele>84</ele>
        <time>2012-09-13T10:53:27Z</time>
      </trkpt>
      <trkpt lat="46.33238" lon="-0.5059">
        <ele>81</ele>
        <time>2012-09-13T10:53:32Z</time>
      </trkpt>
      <trkpt lat="46.33245" lon="-0.50592">
        <ele>82</ele>
        <time>2012-09-13T10:53:37Z</time>
      </trkpt>
      <trkpt lat="46.33253" lon="-0.50593">
        <ele>82</ele>
        <time>2012-09-13T10:53:42Z</time>
      </trkpt>
      <trkpt lat="46.3326" lon="-0.50595">
        <ele>80</ele>
        <time>2012-09-13T10:53:47Z</time>
      </trkpt>
      <trkpt lat="46.33264" lon="-0.50598">
        <ele>79</ele>
        <time>2012-09-13T10:53:52Z</time>
      </trkpt>
      <trkpt lat="46.3327" lon="-0.50604">
        <ele>78</ele>
        <time>2012-09-13T10:53:57Z</time>
      </trkpt>
      <trkpt lat="46.33278" lon="-0.50606">
        <ele>79</ele>
        <time>2012-09-13T10:54:02Z</time>
      </trkpt>
      <trkpt lat="46.33281" lon="-0.50606">
        <ele>80</ele>
        <time>2012-09-13T10:54:07Z</time>
      </trkpt>
      <trkpt lat="46.33288" lon="-0.50606">
        <ele>83</ele>
        <time>2012-09-13T10:54:12Z</time>
      </trkpt>
      <trkpt lat="46.33288" lon="-0.50607">
        <ele>83</ele>
        <time>2012-09-13T10:54:17Z</time>
      </trkpt>
      <trkpt lat="46.33288" lon="-0.50606">
        <ele>82</ele>
        <time>2012-09-13T10:54:22Z</time>
      </trkpt>
      <trkpt lat="46.33289" lon="-0.50606">
        <ele>82</ele>
        <time>2012-09-13T10:54:27Z</time>
      </trkpt>
      <trkpt lat="46.33296" lon="-0.50603">
        <ele>81</ele>
        <time>2012-09-13T10:54:32Z</time>
      </trkpt>
      <trkpt lat="46.33304" lon="-0.50603">
        <ele>81</ele>
        <time>2012-09-13T10:54:37Z</time>
      </trkpt>
      <trkpt lat="46.33309" lon="-0.50603">
        <ele>80</ele>
        <time>2012-09-13T10:54:42Z</time>
      </trkpt>
      <trkpt lat="46.33319" lon="-0.50602">
        <ele>77</ele>
        <time>2012-09-13T10:54:47Z</time>
      </trkpt>
      <trkpt lat="46.33324" lon="-0.50601">
        <ele>75</ele>
        <time>2012-09-13T10:54:52Z</time>
      </trkpt>
      <trkpt lat="46.33327" lon="-0.50601">
        <ele>74</ele>
        <time>2012-09-13T10:54:57Z</time>
      </trkpt>
      <trkpt lat="46.33335" lon="-0.5061">
        <ele>67</ele>
        <time>2012-09-13T10:55:02Z</time>
      </trkpt>
      <trkpt lat="46.33338" lon="-0.50617">
        <ele>63</ele>
        <time>2012-09-13T10:55:07Z</time>
      </trkpt>
      <trkpt lat="46.3334" lon="-0.50622">
        <ele>61</ele>
        <time>2012-09-13T10:55:12Z</time>
      </trkpt>
      <trkpt lat="46.33337" lon="-0.5063">
        <ele>59</ele>
        <time>2012-09-13T10:55:17Z</time>
      </trkpt>
      <trkpt lat="46.33338" lon="-0.5064">
        <ele>57</ele>
        <time>2012-09-13T10:55:22Z</time>
      </trkpt>
      <trkpt lat="46.33334" lon="-0.50645">
        <ele>59</ele>
        <time>2012-09-13T10:55:27Z</time>
      </trkpt>
      <trkpt lat="46.33336" lon="-0.5065">
        <ele>59</ele>
        <time>2012-09-13T10:55:32Z</time>
      </trkpt>
      <trkpt lat="46.33339" lon="-0.50659">
        <ele>57</ele>
        <time>2012-09-13T10:55:37Z</time>
      </trkpt>
      <trkpt lat="46.33341" lon="-0.50665">
        <ele>54</ele>
        <time>2012-09-13T10:55:42Z</time>
      </trkpt>
      <trkpt lat="46.33341" lon="-0.50674">
        <ele>55</ele>
        <time>2012-09-13T10:55:47Z</time>
      </trkpt>
      <trkpt lat="46.33344" lon="-0.50679">
        <ele>56</ele>
        <time>2012-09-13T10:55:52Z</time>
      </trkpt>
      <trkpt lat="46.33344" lon="-0.50688">
        <ele>57</ele>
        <time>2012-09-13T10:55:57Z</time>
      </trkpt>
      <trkpt lat="46.33344" lon="-0.50695">
        <ele>58</ele>
        <time>2012-09-13T10:56:02Z</time>
      </trkpt>
      <trkpt lat="46.33344" lon="-0.50704">
        <ele>62</ele>
        <time>2012-09-13T10:56:07Z</time>
      </trkpt>
      <trkpt lat="46.33343" lon="-0.50712">
        <ele>64</ele>
        <time>2012-09-13T10:56:12Z</time>
      </trkpt>
      <trkpt lat="46.33339" lon="-0.50714">
        <ele>64</ele>
        <time>2012-09-13T10:56:17Z</time>
      </trkpt>
      <trkpt lat="46.33338" lon="-0.50714">
        <ele>65</ele>
        <time>2012-09-13T10:56:22Z</time>
      </trkpt>
      <trkpt lat="46.33337" lon="-0.50714">
        <ele>63</ele>
        <time>2012-09-13T10:56:27Z</time>
      </trkpt>
      <trkpt lat="46.33333" lon="-0.50714">
        <ele>64</ele>
        <time>2012-09-13T10:56:32Z</time>
      </trkpt>
      <trkpt lat="46.33327" lon="-0.50716">
        <ele>65</ele>
        <time>2012-09-13T10:56:37Z</time>
      </trkpt>
      <trkpt lat="46.3332" lon="-0.50714">
        <ele>68</ele>
        <time>2012-09-13T10:56:42Z</time>
      </trkpt>
      <trkpt lat="46.33315" lon="-0.50713">
        <ele>65</ele>
        <time>2012-09-13T10:56:47Z</time>
      </trkpt>
      <trkpt lat="46.33311" lon="-0.50713">
        <ele>63</ele>
        <time>2012-09-13T10:56:52Z</time>
      </trkpt>
      <trkpt lat="46.33305" lon="-0.50713">
        <ele>63</ele>
        <time>2012-09-13T10:56:57Z</time>
      </trkpt>
      <trkpt lat="46.33298" lon="-0.50711">
        <ele>62</ele>
        <time>2012-09-13T10:57:02Z</time>
      </trkpt>
      <trkpt lat="46.33291" lon="-0.50713">
        <ele>59</ele>
        <time>2012-09-13T10:57:07Z</time>
      </trkpt>
      <trkpt lat="46.33288" lon="-0.50713">
        <ele>60</ele>
        <time>2012-09-13T10:57:12Z</time>
      </trkpt>
      <trkpt lat="46.33281" lon="-0.50709">
        <ele>64</ele>
        <time>2012-09-13T10:57:17Z</time>
      </trkpt>
      <trkpt lat="46.33278" lon="-0.50706">
        <ele>65</ele>
        <time>2012-09-13T10:57:22Z</time>
      </trkpt>
      <trkpt lat="46.33275" lon="-0.50707">
        <ele>66</ele>
        <time>2012-09-13T10:57:27Z</time>
      </trkpt>
      <trkpt lat="46.33273" lon="-0.50704">
        <ele>67</ele>
        <time>2012-09-13T10:57:32Z</time>
      </trkpt>
      <trkpt lat="46.33267" lon="-0.50704">
        <ele>66</ele>
        <time>2012-09-13T10:57:37Z</time>
      </trkpt>
      <trkpt lat="46.3326" lon="-0.50703">
        <ele>64</ele>
        <time>2012-09-13T10:57:42Z</time>
      </trkpt>
      <trkpt lat="46.33254" lon="-0.50703">
        <ele>63</ele>
        <time>2012-09-13T10:57:47Z</time>
      </trkpt>
      <trkpt lat="46.33252" lon="-0.50708">
        <ele>64</ele>
        <time>2012-09-13T10:57:52Z</time>
      </trkpt>
      <trkpt lat="46.33247" lon="-0.50715">
        <ele>64</ele>
        <time>2012-09-13T10:57:57Z</time>
      </trkpt>
      <trkpt lat="46.33251" lon="-0.50724">
        <ele>65</ele>
        <time>2012-09-13T10:58:02Z</time>
      </trkpt>
      <trkpt lat="46.33251" lon="-0.5073">
        <ele>65</ele>
        <time>2012-09-13T10:58:07Z</time>
      </trkpt>
      <trkpt lat="46.33251" lon="-0.5074">
        <ele>66</ele>
        <time>2012-09-13T10:58:12Z</time>
      </trkpt>
      <trkpt lat="46.33249" lon="-0.50745">
        <ele>64</ele>
        <time>2012-09-13T10:58:17Z</time>
      </trkpt>
      <trkpt lat="46.3325" lon="-0.50753">
        <ele>63</ele>
        <time>2012-09-13T10:58:22Z</time>
      </trkpt>
      <trkpt lat="46.33249" lon="-0.5076">
        <ele>63</ele>
        <time>2012-09-13T10:58:27Z</time>
      </trkpt>
      <trkpt lat="46.33249" lon="-0.50768">
        <ele>61</ele>
        <time>2012-09-13T10:58:32Z</time>
      </trkpt>
      <trkpt lat="46.33249" lon="-0.50777">
        <ele>61</ele>
        <time>2012-09-13T10:58:37Z</time>
      </trkpt>
      <trkpt lat="46.33249" lon="-0.50784">
        <ele>61</ele>
        <time>2012-09-13T10:58:42Z</time>
      </trkpt>
      <trkpt lat="46.33248" lon="-0.50792">
        <ele>60</ele>
        <time>2012-09-13T10:58:47Z</time>
      </trkpt>
      <trkpt lat="46.33247" lon="-0.50799">
        <ele>59</ele>
        <time>2012-09-13T10:58:52Z</time>
      </trkpt>
      <trkpt lat="46.33246" lon="-0.50804">
        <ele>59</ele>
        <time>2012-09-13T10:58:57Z</time>
      </trkpt>
      <trkpt lat="46.33244" lon="-0.50809">
        <ele>59</ele>
        <time>2012-09-13T10:59:02Z</time>
      </trkpt>
      <trkpt lat="46.33242" lon="-0.5081">
        <ele>59</ele>
        <time>2012-09-13T10:59:07Z</time>
      </trkpt>
      <trkpt lat="46.33241" lon="-0.50811">
        <ele>60</ele>
        <time>2012-09-13T10:59:12Z</time>
      </trkpt>
      <trkpt lat="46.33239" lon="-0.50812">
        <ele>60</ele>
        <time>2012-09-13T10:59:17Z</time>
      </trkpt>
      <trkpt lat="46.33237" lon="-0.50812">
        <ele>57</ele>
        <time>2012-09-13T10:59:22Z</time>
      </trkpt>
      <trkpt lat="46.33234" lon="-0.50814">
        <ele>58</ele>
        <time>2012-09-13T10:59:27Z</time>
      </trkpt>
      <trkpt lat="46.33232" lon="-0.50819">
        <ele>58</ele>
        <time>2012-09-13T10:59:32Z</time>
      </trkpt>
      <trkpt lat="46.33227" lon="-0.50826">
        <ele>58</ele>
        <time>2012-09-13T10:59:37Z</time>
      </trkpt>
      <trkpt lat="46.33225" lon="-0.50831">
        <ele>58</ele>
        <time>2012-09-13T10:59:42Z</time>
      </trkpt>
      <trkpt lat="46.33223" lon="-0.50838">
        <ele>58</ele>
        <time>2012-09-13T10:59:47Z</time>
      </trkpt>
      <trkpt lat="46.33222" lon="-0.50844">
        <ele>58</ele>
        <time>2012-09-13T10:59:52Z</time>
      </trkpt>
      <trkpt lat="46.33219" lon="-0.50852">
        <ele>57</ele>
        <time>2012-09-13T10:59:57Z</time>
      </trkpt>
      <trkpt lat="46.33219" lon="-0.5086">
        <ele>57</ele>
        <time>2012-09-13T11:00:02Z</time>
      </trkpt>
      <trkpt lat="46.33218" lon="-0.50863">
        <ele>58</ele>
        <time>2012-09-13T11:00:07Z</time>
      </trkpt>
      <trkpt lat="46.33216" lon="-0.50868">
        <ele>59</ele>
        <time>2012-09-13T11:00:12Z</time>
      </trkpt>
      <trkpt lat="46.33216" lon="-0.50871">
        <ele>60</ele>
        <time>2012-09-13T11:00:17Z</time>
      </trkpt>
      <trkpt lat="46.33216" lon="-0.50872">
        <ele>59</ele>
        <time>2012-09-13T11:00:22Z</time>
      </trkpt>
      <trkpt lat="46.33214" lon="-0.5088">
        <ele>58</ele>
        <time>2012-09-13T11:00:27Z</time>
      </trkpt>
      <trkpt lat="46.33212" lon="-0.50885">
        <ele>58</ele>
        <time>2012-09-13T11:00:32Z</time>
      </trkpt>
      <trkpt lat="46.33209" lon="-0.50891">
        <ele>58</ele>
        <time>2012-09-13T11:00:37Z</time>
      </trkpt>
      <trkpt lat="46.33203" lon="-0.50893">
        <ele>58</ele>
        <time>2012-09-13T11:00:42Z</time>
      </trkpt>
      <trkpt lat="46.33199" lon="-0.50898">
        <ele>60</ele>
        <time>2012-09-13T11:00:47Z</time>
      </trkpt>
      <trkpt lat="46.33197" lon="-0.50898">
        <ele>60</ele>
        <time>2012-09-13T11:00:52Z</time>
      </trkpt>
      <trkpt lat="46.33194" lon="-0.50898">
        <ele>59</ele>
        <time>2012-09-13T11:00:57Z</time>
      </trkpt>
      <trkpt lat="46.33194" lon="-0.50899">
        <ele>59</ele>
        <time>2012-09-13T11:01:02Z</time>
      </trkpt>
    </trkseg>
  </trk>
</gpx>